<?xml version="1.0" encoding="UTF-8" standalone="no" ?>
<gpx xmlns="http://www.topografix.com/GPX/1/1" xmlns:xsi="http://www.w3.org/2001/XMLSchema-instance" xsi:schemaLocation="http://www.topografix.com/GPX/1/1 http://www.topografix.com/GPX/1/1/gpx.xsd" version="1.1" creator="VisuGPX - https://www.visugpx.com">
  <metadata>
    <name>trail octobre rose 2026</name>
    <desc><![CDATA[11 km]]></desc>
  </metadata>
  <trk>
    <name><![CDATA[Course]]></name>
    <trkseg>
      <trkpt lat="49.53184" lon="3.55613">
        <ele>79.539733</ele>
        <time>2026-08-15T06:16:28.349Z</time>
      </trkpt>
      <trkpt lat="49.53173" lon="3.55614">
        <ele>79.539733</ele>
        <time>2026-08-15T06:16:46.914Z</time>
      </trkpt>
      <trkpt lat="49.53164" lon="3.55611">
        <ele>79.539733</ele>
        <time>2026-08-15T06:16:56.918Z</time>
      </trkpt>
      <trkpt lat="49.53155" lon="3.55613">
        <ele>79.539733</ele>
        <time>2026-08-15T06:17:03.917Z</time>
      </trkpt>
      <trkpt lat="49.53145" lon="3.55611">
        <ele>79.539733</ele>
        <time>2026-08-15T06:17:09.919Z</time>
      </trkpt>
      <trkpt lat="49.53135" lon="3.55607">
        <ele>79.539733</ele>
        <time>2026-08-15T06:17:15.914Z</time>
      </trkpt>
      <trkpt lat="49.53126" lon="3.55596">
        <ele>79.539733</ele>
        <time>2026-08-15T06:17:20.916Z</time>
      </trkpt>
      <trkpt lat="49.53122" lon="3.55583">
        <ele>79.539733</ele>
        <time>2026-08-15T06:17:24.923Z</time>
      </trkpt>
      <trkpt lat="49.53122" lon="3.55566">
        <ele>79.539733</ele>
        <time>2026-08-15T06:17:29.906Z</time>
      </trkpt>
      <trkpt lat="49.53122" lon="3.55549">
        <ele>79.627539</ele>
        <time>2026-08-15T06:17:34.907Z</time>
      </trkpt>
      <trkpt lat="49.53121" lon="3.55535">
        <ele>79.896466</ele>
        <time>2026-08-15T06:17:38.906Z</time>
      </trkpt>
      <trkpt lat="49.53119" lon="3.55521">
        <ele>80.169937</ele>
        <time>2026-08-15T06:17:42.906Z</time>
      </trkpt>
      <trkpt lat="49.53118" lon="3.55507">
        <ele>80.452001</ele>
        <time>2026-08-15T06:17:46.909Z</time>
      </trkpt>
      <trkpt lat="49.53116" lon="3.55493">
        <ele>80.726715</ele>
        <time>2026-08-15T06:17:50.910Z</time>
      </trkpt>
      <trkpt lat="49.53117" lon="3.55479">
        <ele>80.996643</ele>
        <time>2026-08-15T06:17:55.911Z</time>
      </trkpt>
      <trkpt lat="49.53117" lon="3.55464">
        <ele>81.303741</ele>
        <time>2026-08-15T06:18:00.911Z</time>
      </trkpt>
      <trkpt lat="49.53116" lon="3.55449">
        <ele>81.584278</ele>
        <time>2026-08-15T06:18:04.916Z</time>
      </trkpt>
      <trkpt lat="49.53113" lon="3.55433">
        <ele>81.907112</ele>
        <time>2026-08-15T06:18:09.915Z</time>
      </trkpt>
      <trkpt lat="49.53111" lon="3.55419">
        <ele>82.180602</ele>
        <time>2026-08-15T06:18:13.910Z</time>
      </trkpt>
      <trkpt lat="49.53109" lon="3.55403">
        <ele>82.500255</ele>
        <time>2026-08-15T06:18:18.916Z</time>
      </trkpt>
      <trkpt lat="49.53106" lon="3.55388">
        <ele>82.816262</ele>
        <time>2026-08-15T06:18:23.913Z</time>
      </trkpt>
      <trkpt lat="49.53103" lon="3.55372">
        <ele>83.129518</ele>
        <time>2026-08-15T06:18:28.916Z</time>
      </trkpt>
      <trkpt lat="49.53103" lon="3.55357">
        <ele>83.437011</ele>
        <time>2026-08-15T06:18:33.903Z</time>
      </trkpt>
      <trkpt lat="49.53101" lon="3.55341">
        <ele>83.751809</ele>
        <time>2026-08-15T06:18:38.907Z</time>
      </trkpt>
      <trkpt lat="49.53095" lon="3.5533">
        <ele>84.021584</ele>
        <time>2026-08-15T06:18:46.917Z</time>
      </trkpt>
      <trkpt lat="49.53085" lon="3.55337">
        <ele>84.353502</ele>
        <time>2026-08-15T06:19:01.908Z</time>
      </trkpt>
      <trkpt lat="49.53076" lon="3.55336">
        <ele>84.622972</ele>
        <time>2026-08-15T06:19:05.909Z</time>
      </trkpt>
      <trkpt lat="49.53065" lon="3.55334">
        <ele>84.915782</ele>
        <time>2026-08-15T06:19:10.910Z</time>
      </trkpt>
      <trkpt lat="49.53057" lon="3.55324">
        <ele>84.804296</ele>
        <time>2026-08-15T06:19:15.925Z</time>
      </trkpt>
      <trkpt lat="49.53061" lon="3.55309">
        <ele>84.699097</ele>
        <time>2026-08-15T06:19:19.912Z</time>
      </trkpt>
      <trkpt lat="49.53064" lon="3.55294">
        <ele>84.590045</ele>
        <time>2026-08-15T06:19:24.907Z</time>
      </trkpt>
      <trkpt lat="49.53054" lon="3.5529">
        <ele>84.480608</ele>
        <time>2026-08-15T06:19:29.906Z</time>
      </trkpt>
      <trkpt lat="49.53045" lon="3.55286">
        <ele>84.378453</ele>
        <time>2026-08-15T06:19:34.905Z</time>
      </trkpt>
      <trkpt lat="49.53035" lon="3.55283">
        <ele>84.274428</ele>
        <time>2026-08-15T06:19:39.903Z</time>
      </trkpt>
      <trkpt lat="49.53026" lon="3.55279">
        <ele>84.177692</ele>
        <time>2026-08-15T06:19:44.916Z</time>
      </trkpt>
      <trkpt lat="49.53018" lon="3.55272">
        <ele>84.081712</ele>
        <time>2026-08-15T06:19:49.902Z</time>
      </trkpt>
      <trkpt lat="49.5301" lon="3.55265">
        <ele>83.978866</ele>
        <time>2026-08-15T06:19:54.917Z</time>
      </trkpt>
      <trkpt lat="49.53001" lon="3.55259">
        <ele>83.874947</ele>
        <time>2026-08-15T06:19:59.907Z</time>
      </trkpt>
      <trkpt lat="49.52992" lon="3.55258">
        <ele>83.780069</ele>
        <time>2026-08-15T06:20:06.909Z</time>
      </trkpt>
      <trkpt lat="49.52979" lon="3.55257">
        <ele>83.649145</ele>
        <time>2026-08-15T06:20:33.912Z</time>
      </trkpt>
      <trkpt lat="49.5297" lon="3.55258">
        <ele>83.551029</ele>
        <time>2026-08-15T06:20:38.911Z</time>
      </trkpt>
      <trkpt lat="49.52959" lon="3.55259">
        <ele>83.438073</ele>
        <time>2026-08-15T06:20:44.914Z</time>
      </trkpt>
      <trkpt lat="49.5295" lon="3.55259">
        <ele>83.343183</ele>
        <time>2026-08-15T06:20:48.909Z</time>
      </trkpt>
      <trkpt lat="49.5294" lon="3.55259">
        <ele>83.234612</ele>
        <time>2026-08-15T06:20:53.913Z</time>
      </trkpt>
      <trkpt lat="49.52935" lon="3.55244">
        <ele>83.120192</ele>
        <time>2026-08-15T06:20:58.903Z</time>
      </trkpt>
      <trkpt lat="49.52932" lon="3.5523">
        <ele>83.029348</ele>
        <time>2026-08-15T06:21:02.914Z</time>
      </trkpt>
      <trkpt lat="49.52929" lon="3.55215">
        <ele>83.04366</ele>
        <time>2026-08-15T06:21:07.902Z</time>
      </trkpt>
      <trkpt lat="49.52926" lon="3.552">
        <ele>83.057084</ele>
        <time>2026-08-15T06:21:12.904Z</time>
      </trkpt>
      <trkpt lat="49.52921" lon="3.55186">
        <ele>83.071347</ele>
        <time>2026-08-15T06:21:17.907Z</time>
      </trkpt>
      <trkpt lat="49.52918" lon="3.5517">
        <ele>83.085581</ele>
        <time>2026-08-15T06:21:22.922Z</time>
      </trkpt>
      <trkpt lat="49.52916" lon="3.55157">
        <ele>83.098082</ele>
        <time>2026-08-15T06:21:26.910Z</time>
      </trkpt>
      <trkpt lat="49.52906" lon="3.55152">
        <ele>83.111545</ele>
        <time>2026-08-15T06:21:34.909Z</time>
      </trkpt>
      <trkpt lat="49.52898" lon="3.55156">
        <ele>83.124021</ele>
        <time>2026-08-15T06:21:40.911Z</time>
      </trkpt>
      <trkpt lat="49.52887" lon="3.55154">
        <ele>83.138084</ele>
        <time>2026-08-15T06:21:46.892Z</time>
      </trkpt>
      <trkpt lat="49.52879" lon="3.55148">
        <ele>83.150818</ele>
        <time>2026-08-15T06:21:53.907Z</time>
      </trkpt>
      <trkpt lat="49.52877" lon="3.55133">
        <ele>83.163724</ele>
        <time>2026-08-15T06:21:58.901Z</time>
      </trkpt>
      <trkpt lat="49.52876" lon="3.55119">
        <ele>83.176781</ele>
        <time>2026-08-15T06:22:02.911Z</time>
      </trkpt>
      <trkpt lat="49.52873" lon="3.55105">
        <ele>83.190038</ele>
        <time>2026-08-15T06:22:07.904Z</time>
      </trkpt>
      <trkpt lat="49.52869" lon="3.55089">
        <ele>83.204698</ele>
        <time>2026-08-15T06:22:12.914Z</time>
      </trkpt>
      <trkpt lat="49.52866" lon="3.55073">
        <ele>83.219392</ele>
        <time>2026-08-15T06:22:17.904Z</time>
      </trkpt>
      <trkpt lat="49.52862" lon="3.55057">
        <ele>83.234433</ele>
        <time>2026-08-15T06:22:22.903Z</time>
      </trkpt>
      <trkpt lat="49.52859" lon="3.55044">
        <ele>83.246776</ele>
        <time>2026-08-15T06:22:26.924Z</time>
      </trkpt>
      <trkpt lat="49.52854" lon="3.55032">
        <ele>83.259734</ele>
        <time>2026-08-15T06:22:31.909Z</time>
      </trkpt>
      <trkpt lat="49.52847" lon="3.55021">
        <ele>83.272937</ele>
        <time>2026-08-15T06:22:36.909Z</time>
      </trkpt>
      <trkpt lat="49.52842" lon="3.55009">
        <ele>84.153848</ele>
        <time>2026-08-15T06:22:41.922Z</time>
      </trkpt>
      <trkpt lat="49.52835" lon="3.54998">
        <ele>85.194382</ele>
        <time>2026-08-15T06:22:46.908Z</time>
      </trkpt>
      <trkpt lat="49.52828" lon="3.54986">
        <ele>86.268875</ele>
        <time>2026-08-15T06:22:51.906Z</time>
      </trkpt>
      <trkpt lat="49.52821" lon="3.54975">
        <ele>87.346164</ele>
        <time>2026-08-15T06:22:56.917Z</time>
      </trkpt>
      <trkpt lat="49.52813" lon="3.54965">
        <ele>88.392781</ele>
        <time>2026-08-15T06:23:01.910Z</time>
      </trkpt>
      <trkpt lat="49.52806" lon="3.54955">
        <ele>89.43256</ele>
        <time>2026-08-15T06:23:06.911Z</time>
      </trkpt>
      <trkpt lat="49.528" lon="3.54942">
        <ele>90.491932</ele>
        <time>2026-08-15T06:23:11.904Z</time>
      </trkpt>
      <trkpt lat="49.52795" lon="3.54928">
        <ele>91.598779</ele>
        <time>2026-08-15T06:23:17.913Z</time>
      </trkpt>
      <trkpt lat="49.52792" lon="3.54914">
        <ele>92.553965</ele>
        <time>2026-08-15T06:23:24.913Z</time>
      </trkpt>
      <trkpt lat="49.52787" lon="3.54902">
        <ele>93.489805</ele>
        <time>2026-08-15T06:23:31.917Z</time>
      </trkpt>
      <trkpt lat="49.52784" lon="3.54889">
        <ele>94.443715</ele>
        <time>2026-08-15T06:23:39.904Z</time>
      </trkpt>
      <trkpt lat="49.52778" lon="3.54877">
        <ele>95.455921</ele>
        <time>2026-08-15T06:23:48.906Z</time>
      </trkpt>
      <trkpt lat="49.52772" lon="3.54868">
        <ele>96.40189</ele>
        <time>2026-08-15T06:23:56.909Z</time>
      </trkpt>
      <trkpt lat="49.52765" lon="3.54857">
        <ele>97.377413</ele>
        <time>2026-08-15T06:24:06.906Z</time>
      </trkpt>
      <trkpt lat="49.52758" lon="3.54848">
        <ele>98.354119</ele>
        <time>2026-08-15T06:24:15.909Z</time>
      </trkpt>
      <trkpt lat="49.5275" lon="3.5484">
        <ele>99.360468</ele>
        <time>2026-08-15T06:24:24.902Z</time>
      </trkpt>
      <trkpt lat="49.52741" lon="3.54835">
        <ele>100.307033</ele>
        <time>2026-08-15T06:24:32.914Z</time>
      </trkpt>
      <trkpt lat="49.52732" lon="3.5483">
        <ele>101.302366</ele>
        <time>2026-08-15T06:24:42.908Z</time>
      </trkpt>
      <trkpt lat="49.52723" lon="3.54825">
        <ele>102.099128</ele>
        <time>2026-08-15T06:24:49.905Z</time>
      </trkpt>
      <trkpt lat="49.52713" lon="3.54823">
        <ele>102.421829</ele>
        <time>2026-08-15T06:24:56.919Z</time>
      </trkpt>
      <trkpt lat="49.52703" lon="3.54823">
        <ele>102.721843</ele>
        <time>2026-08-15T06:25:03.903Z</time>
      </trkpt>
      <trkpt lat="49.52695" lon="3.5482">
        <ele>103.008223</ele>
        <time>2026-08-15T06:25:09.917Z</time>
      </trkpt>
      <trkpt lat="49.52685" lon="3.54818">
        <ele>103.31515</ele>
        <time>2026-08-15T06:25:16.904Z</time>
      </trkpt>
      <trkpt lat="49.52676" lon="3.54813">
        <ele>103.624504</ele>
        <time>2026-08-15T06:25:23.906Z</time>
      </trkpt>
      <trkpt lat="49.52667" lon="3.54807">
        <ele>103.933525</ele>
        <time>2026-08-15T06:25:30.902Z</time>
      </trkpt>
      <trkpt lat="49.52661" lon="3.54796">
        <ele>104.238003</ele>
        <time>2026-08-15T06:25:37.910Z</time>
      </trkpt>
      <trkpt lat="49.52654" lon="3.54786">
        <ele>104.549823</ele>
        <time>2026-08-15T06:25:45.914Z</time>
      </trkpt>
      <trkpt lat="49.52648" lon="3.54774">
        <ele>104.85676</ele>
        <time>2026-08-15T06:25:52.909Z</time>
      </trkpt>
      <trkpt lat="49.52641" lon="3.54763">
        <ele>105.16404</ele>
        <time>2026-08-15T06:25:59.915Z</time>
      </trkpt>
      <trkpt lat="49.52634" lon="3.54754">
        <ele>105.473933</ele>
        <time>2026-08-15T06:26:06.914Z</time>
      </trkpt>
      <trkpt lat="49.52626" lon="3.54743">
        <ele>105.797567</ele>
        <time>2026-08-15T06:26:13.917Z</time>
      </trkpt>
      <trkpt lat="49.52621" lon="3.5473">
        <ele>106.120965</ele>
        <time>2026-08-15T06:26:20.921Z</time>
      </trkpt>
      <trkpt lat="49.52615" lon="3.54716">
        <ele>106.473722</ele>
        <time>2026-08-15T06:26:26.915Z</time>
      </trkpt>
      <trkpt lat="49.5261" lon="3.54702">
        <ele>106.791359</ele>
        <time>2026-08-15T06:26:31.922Z</time>
      </trkpt>
      <trkpt lat="49.52606" lon="3.54688">
        <ele>107.124879</ele>
        <time>2026-08-15T06:26:36.923Z</time>
      </trkpt>
      <trkpt lat="49.52601" lon="3.54672">
        <ele>107.47693</ele>
        <time>2026-08-15T06:26:41.910Z</time>
      </trkpt>
      <trkpt lat="49.52596" lon="3.54658">
        <ele>107.457709</ele>
        <time>2026-08-15T06:26:46.911Z</time>
      </trkpt>
      <trkpt lat="49.52593" lon="3.54644">
        <ele>106.422894</ele>
        <time>2026-08-15T06:26:51.914Z</time>
      </trkpt>
      <trkpt lat="49.5259" lon="3.54627">
        <ele>105.231646</ele>
        <time>2026-08-15T06:26:56.909Z</time>
      </trkpt>
      <trkpt lat="49.52585" lon="3.54615">
        <ele>104.201719</ele>
        <time>2026-08-15T06:27:00.912Z</time>
      </trkpt>
      <trkpt lat="49.52584" lon="3.54599">
        <ele>103.057257</ele>
        <time>2026-08-15T06:27:05.914Z</time>
      </trkpt>
      <trkpt lat="49.52583" lon="3.54585">
        <ele>102.077116</ele>
        <time>2026-08-15T06:27:09.905Z</time>
      </trkpt>
      <trkpt lat="49.52581" lon="3.5457">
        <ele>101.025036</ele>
        <time>2026-08-15T06:27:13.910Z</time>
      </trkpt>
      <trkpt lat="49.5258" lon="3.54555">
        <ele>99.956657</ele>
        <time>2026-08-15T06:27:17.916Z</time>
      </trkpt>
      <trkpt lat="49.5258" lon="3.54538">
        <ele>98.826863</ele>
        <time>2026-08-15T06:27:21.902Z</time>
      </trkpt>
      <trkpt lat="49.52579" lon="3.54524">
        <ele>97.809936</ele>
        <time>2026-08-15T06:27:25.908Z</time>
      </trkpt>
      <trkpt lat="49.52581" lon="3.54509">
        <ele>96.755648</ele>
        <time>2026-08-15T06:27:29.903Z</time>
      </trkpt>
      <trkpt lat="49.52583" lon="3.54495">
        <ele>95.746628</ele>
        <time>2026-08-15T06:27:33.907Z</time>
      </trkpt>
      <trkpt lat="49.52585" lon="3.5448">
        <ele>94.682749</ele>
        <time>2026-08-15T06:27:37.910Z</time>
      </trkpt>
      <trkpt lat="49.52587" lon="3.54465">
        <ele>93.636375</ele>
        <time>2026-08-15T06:27:41.908Z</time>
      </trkpt>
      <trkpt lat="49.5259" lon="3.54451">
        <ele>92.593912</ele>
        <time>2026-08-15T06:27:45.907Z</time>
      </trkpt>
      <trkpt lat="49.52593" lon="3.54437">
        <ele>91.593522</ele>
        <time>2026-08-15T06:27:49.905Z</time>
      </trkpt>
      <trkpt lat="49.52596" lon="3.54424">
        <ele>90.571544</ele>
        <time>2026-08-15T06:27:53.909Z</time>
      </trkpt>
      <trkpt lat="49.52601" lon="3.54411">
        <ele>89.540609</ele>
        <time>2026-08-15T06:27:57.923Z</time>
      </trkpt>
      <trkpt lat="49.52606" lon="3.54397">
        <ele>88.438417</ele>
        <time>2026-08-15T06:28:01.907Z</time>
      </trkpt>
      <trkpt lat="49.5261" lon="3.54383">
        <ele>88.4432</ele>
        <time>2026-08-15T06:28:06.910Z</time>
      </trkpt>
      <trkpt lat="49.52612" lon="3.54368">
        <ele>88.482127</ele>
        <time>2026-08-15T06:28:12.908Z</time>
      </trkpt>
      <trkpt lat="49.52613" lon="3.54354">
        <ele>88.518731</ele>
        <time>2026-08-15T06:28:20.913Z</time>
      </trkpt>
      <trkpt lat="49.52616" lon="3.54341">
        <ele>88.55568</ele>
        <time>2026-08-15T06:28:33.905Z</time>
      </trkpt>
      <trkpt lat="49.52618" lon="3.54326">
        <ele>88.595981</ele>
        <time>2026-08-15T06:28:41.910Z</time>
      </trkpt>
      <trkpt lat="49.52621" lon="3.54311">
        <ele>88.636743</ele>
        <time>2026-08-15T06:28:47.902Z</time>
      </trkpt>
      <trkpt lat="49.52617" lon="3.54297">
        <ele>88.677396</ele>
        <time>2026-08-15T06:28:55.918Z</time>
      </trkpt>
      <trkpt lat="49.52626" lon="3.54282">
        <ele>88.732465</ele>
        <time>2026-08-15T06:29:44.918Z</time>
      </trkpt>
      <trkpt lat="49.52634" lon="3.54272">
        <ele>88.774867</ele>
        <time>2026-08-15T06:29:48.911Z</time>
      </trkpt>
      <trkpt lat="49.52643" lon="3.54264">
        <ele>88.814735</ele>
        <time>2026-08-15T06:29:52.917Z</time>
      </trkpt>
      <trkpt lat="49.5265" lon="3.54255">
        <ele>88.852639</ele>
        <time>2026-08-15T06:29:56.917Z</time>
      </trkpt>
      <trkpt lat="49.52657" lon="3.54245">
        <ele>88.892397</ele>
        <time>2026-08-15T06:30:00.919Z</time>
      </trkpt>
      <trkpt lat="49.52664" lon="3.54237">
        <ele>88.929962</ele>
        <time>2026-08-15T06:30:04.921Z</time>
      </trkpt>
      <trkpt lat="49.52672" lon="3.54228">
        <ele>88.968332</ele>
        <time>2026-08-15T06:30:08.905Z</time>
      </trkpt>
      <trkpt lat="49.52679" lon="3.54218">
        <ele>89.00853</ele>
        <time>2026-08-15T06:30:12.911Z</time>
      </trkpt>
      <trkpt lat="49.52687" lon="3.54208">
        <ele>89.047985</ele>
        <time>2026-08-15T06:30:16.902Z</time>
      </trkpt>
      <trkpt lat="49.52693" lon="3.54197">
        <ele>89.084942</ele>
        <time>2026-08-15T06:30:20.905Z</time>
      </trkpt>
      <trkpt lat="49.527" lon="3.54186">
        <ele>89.125639</ele>
        <time>2026-08-15T06:30:24.921Z</time>
      </trkpt>
      <trkpt lat="49.52704" lon="3.54173">
        <ele>89.398452</ele>
        <time>2026-08-15T06:30:28.926Z</time>
      </trkpt>
      <trkpt lat="49.5271" lon="3.54162">
        <ele>89.716335</ele>
        <time>2026-08-15T06:30:32.910Z</time>
      </trkpt>
      <trkpt lat="49.52715" lon="3.54148">
        <ele>90.053655</ele>
        <time>2026-08-15T06:30:36.908Z</time>
      </trkpt>
      <trkpt lat="49.5272" lon="3.54132">
        <ele>90.443777</ele>
        <time>2026-08-15T06:30:40.907Z</time>
      </trkpt>
      <trkpt lat="49.52725" lon="3.54118">
        <ele>90.790985</ele>
        <time>2026-08-15T06:30:44.913Z</time>
      </trkpt>
      <trkpt lat="49.5273" lon="3.54104">
        <ele>91.159572</ele>
        <time>2026-08-15T06:30:48.908Z</time>
      </trkpt>
      <trkpt lat="49.52737" lon="3.54093">
        <ele>91.49722</ele>
        <time>2026-08-15T06:30:52.910Z</time>
      </trkpt>
      <trkpt lat="49.52746" lon="3.54085">
        <ele>91.848901</ele>
        <time>2026-08-15T06:30:56.912Z</time>
      </trkpt>
      <trkpt lat="49.52755" lon="3.54079">
        <ele>92.175802</ele>
        <time>2026-08-15T06:31:00.916Z</time>
      </trkpt>
      <trkpt lat="49.52765" lon="3.54074">
        <ele>92.520073</ele>
        <time>2026-08-15T06:31:04.918Z</time>
      </trkpt>
      <trkpt lat="49.52775" lon="3.54069">
        <ele>92.881841</ele>
        <time>2026-08-15T06:31:08.915Z</time>
      </trkpt>
      <trkpt lat="49.52786" lon="3.54067">
        <ele>93.259197</ele>
        <time>2026-08-15T06:31:12.904Z</time>
      </trkpt>
      <trkpt lat="49.52796" lon="3.54066">
        <ele>93.598114</ele>
        <time>2026-08-15T06:31:16.911Z</time>
      </trkpt>
      <trkpt lat="49.52806" lon="3.54062">
        <ele>93.954642</ele>
        <time>2026-08-15T06:31:20.909Z</time>
      </trkpt>
      <trkpt lat="49.52816" lon="3.5406">
        <ele>94.29288</ele>
        <time>2026-08-15T06:31:24.911Z</time>
      </trkpt>
      <trkpt lat="49.52827" lon="3.54059">
        <ele>94.642849</ele>
        <time>2026-08-15T06:31:28.911Z</time>
      </trkpt>
      <trkpt lat="49.52836" lon="3.54058">
        <ele>94.971341</ele>
        <time>2026-08-15T06:31:32.914Z</time>
      </trkpt>
      <trkpt lat="49.52846" lon="3.54058">
        <ele>95.2481</ele>
        <time>2026-08-15T06:31:36.914Z</time>
      </trkpt>
      <trkpt lat="49.52855" lon="3.54057">
        <ele>95.366861</ele>
        <time>2026-08-15T06:31:40.914Z</time>
      </trkpt>
      <trkpt lat="49.52865" lon="3.54058">
        <ele>95.4893</ele>
        <time>2026-08-15T06:31:44.904Z</time>
      </trkpt>
      <trkpt lat="49.52875" lon="3.54058">
        <ele>95.614192</ele>
        <time>2026-08-15T06:31:48.906Z</time>
      </trkpt>
      <trkpt lat="49.52885" lon="3.54056">
        <ele>95.737975</ele>
        <time>2026-08-15T06:31:52.917Z</time>
      </trkpt>
      <trkpt lat="49.52894" lon="3.54052">
        <ele>95.859945</ele>
        <time>2026-08-15T06:31:56.906Z</time>
      </trkpt>
      <trkpt lat="49.52902" lon="3.54044">
        <ele>95.975913</ele>
        <time>2026-08-15T06:32:00.904Z</time>
      </trkpt>
      <trkpt lat="49.52907" lon="3.54033">
        <ele>96.090223</ele>
        <time>2026-08-15T06:32:04.904Z</time>
      </trkpt>
      <trkpt lat="49.52912" lon="3.54019">
        <ele>96.214171</ele>
        <time>2026-08-15T06:32:08.905Z</time>
      </trkpt>
      <trkpt lat="49.52917" lon="3.54005">
        <ele>96.345897</ele>
        <time>2026-08-15T06:32:12.911Z</time>
      </trkpt>
      <trkpt lat="49.5292" lon="3.5399">
        <ele>96.468902</ele>
        <time>2026-08-15T06:32:16.907Z</time>
      </trkpt>
      <trkpt lat="49.52923" lon="3.53976">
        <ele>96.588434</ele>
        <time>2026-08-15T06:32:20.910Z</time>
      </trkpt>
      <trkpt lat="49.52923" lon="3.5396">
        <ele>96.722996</ele>
        <time>2026-08-15T06:32:25.920Z</time>
      </trkpt>
      <trkpt lat="49.52925" lon="3.53945">
        <ele>96.846627</ele>
        <time>2026-08-15T06:32:30.910Z</time>
      </trkpt>
      <trkpt lat="49.52928" lon="3.5393">
        <ele>96.970817</ele>
        <time>2026-08-15T06:32:35.908Z</time>
      </trkpt>
      <trkpt lat="49.52938" lon="3.53927">
        <ele>97.099428</ele>
        <time>2026-08-15T06:32:40.909Z</time>
      </trkpt>
      <trkpt lat="49.52948" lon="3.53923">
        <ele>97.22835</ele>
        <time>2026-08-15T06:32:45.915Z</time>
      </trkpt>
      <trkpt lat="49.52955" lon="3.53913">
        <ele>97.345364</ele>
        <time>2026-08-15T06:32:50.911Z</time>
      </trkpt>
      <trkpt lat="49.52959" lon="3.53899">
        <ele>97.475395</ele>
        <time>2026-08-15T06:32:55.911Z</time>
      </trkpt>
      <trkpt lat="49.52963" lon="3.53886">
        <ele>97.718665</ele>
        <time>2026-08-15T06:33:01.903Z</time>
      </trkpt>
      <trkpt lat="49.5297" lon="3.53875">
        <ele>97.964893</ele>
        <time>2026-08-15T06:33:09.913Z</time>
      </trkpt>
      <trkpt lat="49.52976" lon="3.53863">
        <ele>98.21918</ele>
        <time>2026-08-15T06:33:16.915Z</time>
      </trkpt>
      <trkpt lat="49.52982" lon="3.5385">
        <ele>98.477709</ele>
        <time>2026-08-15T06:33:23.906Z</time>
      </trkpt>
      <trkpt lat="49.52988" lon="3.53838">
        <ele>98.732017</ele>
        <time>2026-08-15T06:33:30.922Z</time>
      </trkpt>
      <trkpt lat="49.52993" lon="3.53825">
        <ele>98.984572</ele>
        <time>2026-08-15T06:33:37.916Z</time>
      </trkpt>
      <trkpt lat="49.52999" lon="3.53814">
        <ele>99.233726</ele>
        <time>2026-08-15T06:33:44.918Z</time>
      </trkpt>
      <trkpt lat="49.53004" lon="3.538">
        <ele>99.486813</ele>
        <time>2026-08-15T06:33:51.920Z</time>
      </trkpt>
      <trkpt lat="49.53006" lon="3.53786">
        <ele>99.736656</ele>
        <time>2026-08-15T06:33:58.914Z</time>
      </trkpt>
      <trkpt lat="49.53009" lon="3.53773">
        <ele>99.972947</ele>
        <time>2026-08-15T06:34:05.922Z</time>
      </trkpt>
      <trkpt lat="49.53011" lon="3.53758">
        <ele>100.226812</ele>
        <time>2026-08-15T06:34:12.918Z</time>
      </trkpt>
      <trkpt lat="49.53012" lon="3.53743">
        <ele>100.46911</ele>
        <time>2026-08-15T06:34:19.923Z</time>
      </trkpt>
      <trkpt lat="49.53014" lon="3.53728">
        <ele>100.733436</ele>
        <time>2026-08-15T06:34:27.912Z</time>
      </trkpt>
      <trkpt lat="49.53018" lon="3.53715">
        <ele>100.965765</ele>
        <time>2026-08-15T06:34:33.922Z</time>
      </trkpt>
      <trkpt lat="49.53022" lon="3.53702">
        <ele>101.208044</ele>
        <time>2026-08-15T06:34:40.920Z</time>
      </trkpt>
      <trkpt lat="49.53028" lon="3.53691">
        <ele>101.439891</ele>
        <time>2026-08-15T06:34:47.917Z</time>
      </trkpt>
      <trkpt lat="49.53034" lon="3.5368">
        <ele>101.687392</ele>
        <time>2026-08-15T06:34:54.917Z</time>
      </trkpt>
      <trkpt lat="49.5304" lon="3.53669">
        <ele>101.931886</ele>
        <time>2026-08-15T06:35:02.920Z</time>
      </trkpt>
      <trkpt lat="49.53047" lon="3.53658">
        <ele>102.151275</ele>
        <time>2026-08-15T06:35:10.920Z</time>
      </trkpt>
      <trkpt lat="49.53054" lon="3.53648">
        <ele>102.285323</ele>
        <time>2026-08-15T06:35:17.900Z</time>
      </trkpt>
      <trkpt lat="49.53061" lon="3.53638">
        <ele>102.4286</ele>
        <time>2026-08-15T06:35:25.918Z</time>
      </trkpt>
      <trkpt lat="49.53066" lon="3.53626">
        <ele>102.56997</ele>
        <time>2026-08-15T06:35:33.925Z</time>
      </trkpt>
      <trkpt lat="49.53073" lon="3.53615">
        <ele>102.70892</ele>
        <time>2026-08-15T06:35:40.915Z</time>
      </trkpt>
      <trkpt lat="49.5308" lon="3.53605">
        <ele>102.849589</ele>
        <time>2026-08-15T06:35:46.917Z</time>
      </trkpt>
      <trkpt lat="49.53086" lon="3.53593">
        <ele>102.995606</ele>
        <time>2026-08-15T06:35:53.918Z</time>
      </trkpt>
      <trkpt lat="49.53091" lon="3.53582">
        <ele>103.129311</ele>
        <time>2026-08-15T06:36:00.918Z</time>
      </trkpt>
      <trkpt lat="49.53097" lon="3.53568">
        <ele>103.281854</ele>
        <time>2026-08-15T06:36:06.926Z</time>
      </trkpt>
      <trkpt lat="49.53105" lon="3.53557">
        <ele>103.437057</ele>
        <time>2026-08-15T06:36:11.922Z</time>
      </trkpt>
      <trkpt lat="49.5311" lon="3.53542">
        <ele>103.596743</ele>
        <time>2026-08-15T06:36:16.919Z</time>
      </trkpt>
      <trkpt lat="49.53112" lon="3.53526">
        <ele>103.755422</ele>
        <time>2026-08-15T06:36:21.919Z</time>
      </trkpt>
      <trkpt lat="49.53113" lon="3.53512">
        <ele>103.888147</ele>
        <time>2026-08-15T06:36:25.916Z</time>
      </trkpt>
      <trkpt lat="49.53114" lon="3.53498">
        <ele>104.0209</ele>
        <time>2026-08-15T06:36:29.923Z</time>
      </trkpt>
      <trkpt lat="49.53118" lon="3.53485">
        <ele>104.155935</ele>
        <time>2026-08-15T06:36:33.920Z</time>
      </trkpt>
      <trkpt lat="49.53122" lon="3.53472">
        <ele>104.295845</ele>
        <time>2026-08-15T06:36:37.916Z</time>
      </trkpt>
      <trkpt lat="49.53128" lon="3.53461">
        <ele>104.435398</ele>
        <time>2026-08-15T06:36:41.918Z</time>
      </trkpt>
      <trkpt lat="49.53133" lon="3.53448">
        <ele>104.574349</ele>
        <time>2026-08-15T06:36:46.917Z</time>
      </trkpt>
      <trkpt lat="49.53139" lon="3.53437">
        <ele>104.708053</ele>
        <time>2026-08-15T06:36:51.924Z</time>
      </trkpt>
      <trkpt lat="49.53144" lon="3.53425">
        <ele>104.89618</ele>
        <time>2026-08-15T06:36:56.919Z</time>
      </trkpt>
      <trkpt lat="49.53149" lon="3.53412">
        <ele>105.109962</ele>
        <time>2026-08-15T06:37:01.920Z</time>
      </trkpt>
      <trkpt lat="49.53156" lon="3.53399">
        <ele>105.32581</ele>
        <time>2026-08-15T06:37:06.900Z</time>
      </trkpt>
      <trkpt lat="49.53161" lon="3.53387">
        <ele>105.532527</ele>
        <time>2026-08-15T06:37:11.914Z</time>
      </trkpt>
      <trkpt lat="49.53168" lon="3.53377">
        <ele>105.742494</ele>
        <time>2026-08-15T06:37:16.912Z</time>
      </trkpt>
      <trkpt lat="49.53176" lon="3.53367">
        <ele>105.953644</ele>
        <time>2026-08-15T06:37:21.914Z</time>
      </trkpt>
      <trkpt lat="49.53183" lon="3.53357">
        <ele>106.164068</ele>
        <time>2026-08-15T06:37:26.918Z</time>
      </trkpt>
      <trkpt lat="49.53188" lon="3.53343">
        <ele>106.386958</ele>
        <time>2026-08-15T06:37:31.918Z</time>
      </trkpt>
      <trkpt lat="49.53195" lon="3.53332">
        <ele>106.60477</ele>
        <time>2026-08-15T06:37:36.919Z</time>
      </trkpt>
      <trkpt lat="49.53201" lon="3.53319">
        <ele>106.823258</ele>
        <time>2026-08-15T06:37:41.916Z</time>
      </trkpt>
      <trkpt lat="49.5321" lon="3.53313">
        <ele>107.019421</ele>
        <time>2026-08-15T06:37:46.909Z</time>
      </trkpt>
      <trkpt lat="49.53219" lon="3.53304">
        <ele>107.253383</ele>
        <time>2026-08-15T06:37:51.914Z</time>
      </trkpt>
      <trkpt lat="49.53226" lon="3.53295">
        <ele>107.450361</ele>
        <time>2026-08-15T06:37:56.918Z</time>
      </trkpt>
      <trkpt lat="49.53233" lon="3.53286">
        <ele>107.642084</ele>
        <time>2026-08-15T06:38:02.919Z</time>
      </trkpt>
      <trkpt lat="49.5324" lon="3.53278">
        <ele>107.839063</ele>
        <time>2026-08-15T06:38:10.916Z</time>
      </trkpt>
      <trkpt lat="49.53248" lon="3.53268">
        <ele>108.043996</ele>
        <time>2026-08-15T06:38:18.915Z</time>
      </trkpt>
      <trkpt lat="49.53254" lon="3.53256">
        <ele>108.259841</ele>
        <time>2026-08-15T06:38:26.913Z</time>
      </trkpt>
      <trkpt lat="49.53261" lon="3.53245">
        <ele>108.470177</ele>
        <time>2026-08-15T06:38:34.914Z</time>
      </trkpt>
      <trkpt lat="49.53269" lon="3.53234">
        <ele>108.838601</ele>
        <time>2026-08-15T06:38:42.924Z</time>
      </trkpt>
      <trkpt lat="49.53276" lon="3.53224">
        <ele>109.319749</ele>
        <time>2026-08-15T06:38:50.916Z</time>
      </trkpt>
      <trkpt lat="49.53284" lon="3.53214">
        <ele>109.796789</ele>
        <time>2026-08-15T06:38:57.914Z</time>
      </trkpt>
      <trkpt lat="49.53289" lon="3.53202">
        <ele>110.250283</ele>
        <time>2026-08-15T06:39:04.914Z</time>
      </trkpt>
      <trkpt lat="49.53297" lon="3.53194">
        <ele>110.715909</ele>
        <time>2026-08-15T06:39:12.919Z</time>
      </trkpt>
      <trkpt lat="49.53306" lon="3.53188">
        <ele>111.166904</ele>
        <time>2026-08-15T06:39:19.912Z</time>
      </trkpt>
      <trkpt lat="49.53313" lon="3.53177">
        <ele>111.655791</ele>
        <time>2026-08-15T06:39:26.916Z</time>
      </trkpt>
      <trkpt lat="49.53321" lon="3.53168">
        <ele>112.101717</ele>
        <time>2026-08-15T06:39:33.914Z</time>
      </trkpt>
      <trkpt lat="49.5333" lon="3.53164">
        <ele>112.576226</ele>
        <time>2026-08-15T06:39:41.919Z</time>
      </trkpt>
      <trkpt lat="49.53338" lon="3.53158">
        <ele>113.018335</ele>
        <time>2026-08-15T06:39:47.914Z</time>
      </trkpt>
      <trkpt lat="49.53345" lon="3.53148">
        <ele>113.451392</ele>
        <time>2026-08-15T06:39:54.915Z</time>
      </trkpt>
      <trkpt lat="49.53353" lon="3.53141">
        <ele>113.914183</ele>
        <time>2026-08-15T06:40:01.916Z</time>
      </trkpt>
      <trkpt lat="49.53361" lon="3.53133">
        <ele>114.376974</ele>
        <time>2026-08-15T06:40:08.917Z</time>
      </trkpt>
      <trkpt lat="49.53371" lon="3.53127">
        <ele>114.863768</ele>
        <time>2026-08-15T06:40:15.913Z</time>
      </trkpt>
      <trkpt lat="49.53377" lon="3.53117">
        <ele>115.316781</ele>
        <time>2026-08-15T06:40:22.915Z</time>
      </trkpt>
      <trkpt lat="49.53385" lon="3.53107">
        <ele>115.786585</ele>
        <time>2026-08-15T06:40:30.913Z</time>
      </trkpt>
      <trkpt lat="49.53393" lon="3.53101">
        <ele>116.239897</ele>
        <time>2026-08-15T06:40:37.918Z</time>
      </trkpt>
      <trkpt lat="49.534" lon="3.53089">
        <ele>116.739342</ele>
        <time>2026-08-15T06:40:45.916Z</time>
      </trkpt>
      <trkpt lat="49.53404" lon="3.53077">
        <ele>117.179769</ele>
        <time>2026-08-15T06:40:52.915Z</time>
      </trkpt>
      <trkpt lat="49.5341" lon="3.53064">
        <ele>117.699238</ele>
        <time>2026-08-15T06:40:59.917Z</time>
      </trkpt>
      <trkpt lat="49.53418" lon="3.53056">
        <ele>118.247657</ele>
        <time>2026-08-15T06:41:06.912Z</time>
      </trkpt>
      <trkpt lat="49.53427" lon="3.53048">
        <ele>118.786933</ele>
        <time>2026-08-15T06:41:14.912Z</time>
      </trkpt>
      <trkpt lat="49.53435" lon="3.53039">
        <ele>119.355842</ele>
        <time>2026-08-15T06:41:20.915Z</time>
      </trkpt>
      <trkpt lat="49.53443" lon="3.53032">
        <ele>119.856731</ele>
        <time>2026-08-15T06:41:27.917Z</time>
      </trkpt>
      <trkpt lat="49.53451" lon="3.53023">
        <ele>120.369153</ele>
        <time>2026-08-15T06:41:34.918Z</time>
      </trkpt>
      <trkpt lat="49.53459" lon="3.53016">
        <ele>120.886999</ele>
        <time>2026-08-15T06:41:41.897Z</time>
      </trkpt>
      <trkpt lat="49.53468" lon="3.53008">
        <ele>121.438066</ele>
        <time>2026-08-15T06:41:48.914Z</time>
      </trkpt>
      <trkpt lat="49.53476" lon="3.53001">
        <ele>121.975322</ele>
        <time>2026-08-15T06:41:55.916Z</time>
      </trkpt>
      <trkpt lat="49.53486" lon="3.52996">
        <ele>122.525496</ele>
        <time>2026-08-15T06:42:02.906Z</time>
      </trkpt>
      <trkpt lat="49.53495" lon="3.5299">
        <ele>123.058939</ele>
        <time>2026-08-15T06:42:09.920Z</time>
      </trkpt>
      <trkpt lat="49.53504" lon="3.52986">
        <ele>123.561997</ele>
        <time>2026-08-15T06:42:16.919Z</time>
      </trkpt>
      <trkpt lat="49.53512" lon="3.52981">
        <ele>124.059348</ele>
        <time>2026-08-15T06:42:23.917Z</time>
      </trkpt>
      <trkpt lat="49.53521" lon="3.52976">
        <ele>124.594582</ele>
        <time>2026-08-15T06:42:30.914Z</time>
      </trkpt>
      <trkpt lat="49.53531" lon="3.52972">
        <ele>125.141655</ele>
        <time>2026-08-15T06:42:37.913Z</time>
      </trkpt>
      <trkpt lat="49.5354" lon="3.52968">
        <ele>125.668576</ele>
        <time>2026-08-15T06:42:44.917Z</time>
      </trkpt>
      <trkpt lat="49.5355" lon="3.52963">
        <ele>126.20574</ele>
        <time>2026-08-15T06:42:51.917Z</time>
      </trkpt>
      <trkpt lat="49.5356" lon="3.52962">
        <ele>126.754395</ele>
        <time>2026-08-15T06:42:58.916Z</time>
      </trkpt>
      <trkpt lat="49.53569" lon="3.5296">
        <ele>127.236018</ele>
        <time>2026-08-15T06:43:05.922Z</time>
      </trkpt>
      <trkpt lat="49.53579" lon="3.52961">
        <ele>127.7213</ele>
        <time>2026-08-15T06:43:13.919Z</time>
      </trkpt>
      <trkpt lat="49.53589" lon="3.52961">
        <ele>128.221791</ele>
        <time>2026-08-15T06:43:20.916Z</time>
      </trkpt>
      <trkpt lat="49.53599" lon="3.52961">
        <ele>128.732163</ele>
        <time>2026-08-15T06:43:27.917Z</time>
      </trkpt>
      <trkpt lat="49.53609" lon="3.52964">
        <ele>129.249189</ele>
        <time>2026-08-15T06:43:34.918Z</time>
      </trkpt>
      <trkpt lat="49.53618" lon="3.52965">
        <ele>129.700038</ele>
        <time>2026-08-15T06:43:41.917Z</time>
      </trkpt>
      <trkpt lat="49.53627" lon="3.52968">
        <ele>130.178241</ele>
        <time>2026-08-15T06:43:48.919Z</time>
      </trkpt>
      <trkpt lat="49.53637" lon="3.52971">
        <ele>130.67015</ele>
        <time>2026-08-15T06:43:55.906Z</time>
      </trkpt>
      <trkpt lat="49.53646" lon="3.52977">
        <ele>131.155984</ele>
        <time>2026-08-15T06:44:02.914Z</time>
      </trkpt>
      <trkpt lat="49.53655" lon="3.52982">
        <ele>131.627332</ele>
        <time>2026-08-15T06:44:09.916Z</time>
      </trkpt>
      <trkpt lat="49.53663" lon="3.52988">
        <ele>132.095198</ele>
        <time>2026-08-15T06:44:17.918Z</time>
      </trkpt>
      <trkpt lat="49.53672" lon="3.52994">
        <ele>132.588231</ele>
        <time>2026-08-15T06:44:25.915Z</time>
      </trkpt>
      <trkpt lat="49.5368" lon="3.53">
        <ele>133.041999</ele>
        <time>2026-08-15T06:44:32.914Z</time>
      </trkpt>
      <trkpt lat="49.53689" lon="3.53005">
        <ele>133.513574</ele>
        <time>2026-08-15T06:44:39.917Z</time>
      </trkpt>
      <trkpt lat="49.53697" lon="3.53013">
        <ele>133.997717</ele>
        <time>2026-08-15T06:44:46.917Z</time>
      </trkpt>
      <trkpt lat="49.53707" lon="3.53019">
        <ele>134.512422</ele>
        <time>2026-08-15T06:44:54.918Z</time>
      </trkpt>
      <trkpt lat="49.53717" lon="3.53023">
        <ele>135.028302</ele>
        <time>2026-08-15T06:45:02.913Z</time>
      </trkpt>
      <trkpt lat="49.53726" lon="3.5303">
        <ele>135.52358</ele>
        <time>2026-08-15T06:45:10.914Z</time>
      </trkpt>
      <trkpt lat="49.53735" lon="3.53036">
        <ele>136.00899</ele>
        <time>2026-08-15T06:45:17.919Z</time>
      </trkpt>
      <trkpt lat="49.53744" lon="3.53041">
        <ele>137.162882</ele>
        <time>2026-08-15T06:45:25.914Z</time>
      </trkpt>
      <trkpt lat="49.53753" lon="3.53048">
        <ele>138.319438</ele>
        <time>2026-08-15T06:45:32.916Z</time>
      </trkpt>
      <trkpt lat="49.53761" lon="3.53056">
        <ele>139.443017</ele>
        <time>2026-08-15T06:45:39.915Z</time>
      </trkpt>
      <trkpt lat="49.5377" lon="3.53064">
        <ele>140.628719</ele>
        <time>2026-08-15T06:45:46.915Z</time>
      </trkpt>
      <trkpt lat="49.53777" lon="3.53074">
        <ele>141.824283</ele>
        <time>2026-08-15T06:45:54.910Z</time>
      </trkpt>
      <trkpt lat="49.53785" lon="3.53084">
        <ele>142.992335</ele>
        <time>2026-08-15T06:46:03.915Z</time>
      </trkpt>
      <trkpt lat="49.53792" lon="3.53095">
        <ele>144.181618</ele>
        <time>2026-08-15T06:46:12.916Z</time>
      </trkpt>
      <trkpt lat="49.53799" lon="3.53104">
        <ele>145.287981</ele>
        <time>2026-08-15T06:46:20.916Z</time>
      </trkpt>
      <trkpt lat="49.53806" lon="3.53113">
        <ele>146.380373</ele>
        <time>2026-08-15T06:46:29.913Z</time>
      </trkpt>
      <trkpt lat="49.53814" lon="3.53123">
        <ele>147.528652</ele>
        <time>2026-08-15T06:46:39.914Z</time>
      </trkpt>
      <trkpt lat="49.53821" lon="3.53132">
        <ele>148.611475</ele>
        <time>2026-08-15T06:46:46.912Z</time>
      </trkpt>
      <trkpt lat="49.53829" lon="3.53139">
        <ele>149.733769</ele>
        <time>2026-08-15T06:46:53.914Z</time>
      </trkpt>
      <trkpt lat="49.53836" lon="3.53149">
        <ele>150.821432</ele>
        <time>2026-08-15T06:47:01.914Z</time>
      </trkpt>
      <trkpt lat="49.53845" lon="3.53154">
        <ele>151.915519</ele>
        <time>2026-08-15T06:47:10.917Z</time>
      </trkpt>
      <trkpt lat="49.53852" lon="3.53162">
        <ele>153.041178</ele>
        <time>2026-08-15T06:47:17.913Z</time>
      </trkpt>
      <trkpt lat="49.5386" lon="3.53171">
        <ele>154.166211</ele>
        <time>2026-08-15T06:47:25.912Z</time>
      </trkpt>
      <trkpt lat="49.53869" lon="3.53175">
        <ele>155.269898</ele>
        <time>2026-08-15T06:47:33.914Z</time>
      </trkpt>
      <trkpt lat="49.53876" lon="3.53185">
        <ele>156.411999</ele>
        <time>2026-08-15T06:47:41.917Z</time>
      </trkpt>
      <trkpt lat="49.53884" lon="3.53192">
        <ele>157.390473</ele>
        <time>2026-08-15T06:47:48.922Z</time>
      </trkpt>
      <trkpt lat="49.53893" lon="3.53198">
        <ele>158.078516</ele>
        <time>2026-08-15T06:47:55.918Z</time>
      </trkpt>
      <trkpt lat="49.53902" lon="3.53206">
        <ele>158.791795</ele>
        <time>2026-08-15T06:48:03.914Z</time>
      </trkpt>
      <trkpt lat="49.53911" lon="3.53214">
        <ele>159.50724</ele>
        <time>2026-08-15T06:48:12.917Z</time>
      </trkpt>
      <trkpt lat="49.5392" lon="3.53221">
        <ele>160.209962</ele>
        <time>2026-08-15T06:48:20.913Z</time>
      </trkpt>
      <trkpt lat="49.53926" lon="3.5323">
        <ele>160.85121</ele>
        <time>2026-08-15T06:48:28.918Z</time>
      </trkpt>
      <trkpt lat="49.53935" lon="3.53236">
        <ele>161.491441</ele>
        <time>2026-08-15T06:48:36.916Z</time>
      </trkpt>
      <trkpt lat="49.53941" lon="3.53246">
        <ele>162.13281</ele>
        <time>2026-08-15T06:48:42.914Z</time>
      </trkpt>
      <trkpt lat="49.53948" lon="3.53255">
        <ele>162.780169</ele>
        <time>2026-08-15T06:48:49.903Z</time>
      </trkpt>
      <trkpt lat="49.53955" lon="3.53264">
        <ele>163.431129</ele>
        <time>2026-08-15T06:48:58.910Z</time>
      </trkpt>
      <trkpt lat="49.53964" lon="3.5327">
        <ele>164.096955</ele>
        <time>2026-08-15T06:49:06.918Z</time>
      </trkpt>
      <trkpt lat="49.53971" lon="3.53279">
        <ele>164.767554</ele>
        <time>2026-08-15T06:49:13.908Z</time>
      </trkpt>
      <trkpt lat="49.5398" lon="3.53273">
        <ele>165.427835</ele>
        <time>2026-08-15T06:49:31.914Z</time>
      </trkpt>
      <trkpt lat="49.53983" lon="3.5326">
        <ele>166.068473</ele>
        <time>2026-08-15T06:49:37.918Z</time>
      </trkpt>
      <trkpt lat="49.53986" lon="3.53247">
        <ele>166.726275</ele>
        <time>2026-08-15T06:49:44.920Z</time>
      </trkpt>
      <trkpt lat="49.5399" lon="3.53233">
        <ele>167.395575</ele>
        <time>2026-08-15T06:49:51.914Z</time>
      </trkpt>
      <trkpt lat="49.53992" lon="3.5322">
        <ele>168.045957</ele>
        <time>2026-08-15T06:49:58.915Z</time>
      </trkpt>
      <trkpt lat="49.53994" lon="3.53205">
        <ele>168.706833</ele>
        <time>2026-08-15T06:50:04.918Z</time>
      </trkpt>
      <trkpt lat="49.53999" lon="3.53192">
        <ele>169.428879</ele>
        <time>2026-08-15T06:50:09.918Z</time>
      </trkpt>
      <trkpt lat="49.54005" lon="3.53178">
        <ele>170.102753</ele>
        <time>2026-08-15T06:50:14.920Z</time>
      </trkpt>
      <trkpt lat="49.54009" lon="3.53164">
        <ele>170.55505</ele>
        <time>2026-08-15T06:50:21.918Z</time>
      </trkpt>
      <trkpt lat="49.54011" lon="3.5315">
        <ele>170.978358</ele>
        <time>2026-08-15T06:50:28.912Z</time>
      </trkpt>
      <trkpt lat="49.54009" lon="3.53135">
        <ele>171.42382</ele>
        <time>2026-08-15T06:50:35.918Z</time>
      </trkpt>
      <trkpt lat="49.54006" lon="3.53121">
        <ele>171.864904</ele>
        <time>2026-08-15T06:50:42.916Z</time>
      </trkpt>
      <trkpt lat="49.54" lon="3.53109">
        <ele>172.296696</ele>
        <time>2026-08-15T06:50:50.914Z</time>
      </trkpt>
      <trkpt lat="49.53988" lon="3.5309">
        <ele>173.09973</ele>
        <time>2026-08-15T06:52:08.903Z</time>
      </trkpt>
      <trkpt lat="49.53983" lon="3.53078">
        <ele>173.523567</ele>
        <time>2026-08-15T06:52:14.913Z</time>
      </trkpt>
      <trkpt lat="49.53977" lon="3.53067">
        <ele>173.940879</ele>
        <time>2026-08-15T06:52:30.902Z</time>
      </trkpt>
      <trkpt lat="49.53971" lon="3.53055">
        <ele>174.39821</ele>
        <time>2026-08-15T06:52:38.901Z</time>
      </trkpt>
      <trkpt lat="49.53965" lon="3.53045">
        <ele>174.822127</ele>
        <time>2026-08-15T06:52:46.907Z</time>
      </trkpt>
      <trkpt lat="49.53959" lon="3.53033">
        <ele>175.246712</ele>
        <time>2026-08-15T06:52:53.906Z</time>
      </trkpt>
      <trkpt lat="49.53955" lon="3.53019">
        <ele>175.703076</ele>
        <time>2026-08-15T06:53:00.909Z</time>
      </trkpt>
      <trkpt lat="49.53949" lon="3.53007">
        <ele>176.139532</ele>
        <time>2026-08-15T06:53:07.908Z</time>
      </trkpt>
      <trkpt lat="49.53943" lon="3.52995">
        <ele>176.601823</ele>
        <time>2026-08-15T06:53:14.907Z</time>
      </trkpt>
      <trkpt lat="49.53939" lon="3.52983">
        <ele>177.030204</ele>
        <time>2026-08-15T06:53:21.905Z</time>
      </trkpt>
      <trkpt lat="49.53934" lon="3.5297">
        <ele>177.461886</ele>
        <time>2026-08-15T06:53:28.905Z</time>
      </trkpt>
      <trkpt lat="49.53924" lon="3.52954">
        <ele>178.099886</ele>
        <time>2026-08-15T07:08:18.907Z</time>
      </trkpt>
      <trkpt lat="49.53917" lon="3.52942">
        <ele>178.256214</ele>
        <time>2026-08-15T07:08:22.924Z</time>
      </trkpt>
      <trkpt lat="49.53909" lon="3.52933">
        <ele>178.359642</ele>
        <time>2026-08-15T07:08:26.902Z</time>
      </trkpt>
      <trkpt lat="49.53902" lon="3.5292">
        <ele>178.474759</ele>
        <time>2026-08-15T07:08:31.906Z</time>
      </trkpt>
      <trkpt lat="49.53895" lon="3.52909">
        <ele>178.575098</ele>
        <time>2026-08-15T07:08:35.921Z</time>
      </trkpt>
      <trkpt lat="49.53889" lon="3.52899">
        <ele>178.67132</ele>
        <time>2026-08-15T07:08:39.924Z</time>
      </trkpt>
      <trkpt lat="49.53882" lon="3.52886">
        <ele>178.787165</ele>
        <time>2026-08-15T07:08:44.910Z</time>
      </trkpt>
      <trkpt lat="49.53874" lon="3.52873">
        <ele>178.90767</ele>
        <time>2026-08-15T07:08:49.911Z</time>
      </trkpt>
      <trkpt lat="49.53867" lon="3.5286">
        <ele>179.025573</ele>
        <time>2026-08-15T07:08:54.918Z</time>
      </trkpt>
      <trkpt lat="49.53859" lon="3.52847">
        <ele>179.140903</ele>
        <time>2026-08-15T07:08:59.918Z</time>
      </trkpt>
      <trkpt lat="49.53852" lon="3.52836">
        <ele>179.247547</ele>
        <time>2026-08-15T07:09:03.917Z</time>
      </trkpt>
      <trkpt lat="49.53846" lon="3.52821">
        <ele>179.366388</ele>
        <time>2026-08-15T07:09:07.923Z</time>
      </trkpt>
      <trkpt lat="49.5384" lon="3.52809">
        <ele>179.471774</ele>
        <time>2026-08-15T07:09:11.911Z</time>
      </trkpt>
      <trkpt lat="49.53834" lon="3.52795">
        <ele>179.583222</ele>
        <time>2026-08-15T07:09:17.912Z</time>
      </trkpt>
      <trkpt lat="49.53829" lon="3.52781">
        <ele>179.693823</ele>
        <time>2026-08-15T07:09:24.916Z</time>
      </trkpt>
      <trkpt lat="49.5383" lon="3.52766">
        <ele>179.791786</ele>
        <time>2026-08-15T07:09:35.920Z</time>
      </trkpt>
      <trkpt lat="49.53821" lon="3.52759">
        <ele>179.890029</ele>
        <time>2026-08-15T07:09:57.907Z</time>
      </trkpt>
      <trkpt lat="49.53816" lon="3.52746">
        <ele>179.995228</ele>
        <time>2026-08-15T07:10:04.912Z</time>
      </trkpt>
      <trkpt lat="49.53808" lon="3.5274">
        <ele>180.072123</ele>
        <time>2026-08-15T07:10:17.909Z</time>
      </trkpt>
      <trkpt lat="49.53818" lon="3.52734">
        <ele>180.148425</ele>
        <time>2026-08-15T07:10:30.909Z</time>
      </trkpt>
      <trkpt lat="49.53827" lon="3.52739">
        <ele>180.215844</ele>
        <time>2026-08-15T07:10:34.914Z</time>
      </trkpt>
      <trkpt lat="49.53836" lon="3.52744">
        <ele>180.284898</ele>
        <time>2026-08-15T07:10:40.902Z</time>
      </trkpt>
      <trkpt lat="49.53845" lon="3.52746">
        <ele>180.352618</ele>
        <time>2026-08-15T07:10:48.907Z</time>
      </trkpt>
      <trkpt lat="49.53854" lon="3.52746">
        <ele>180.416889</ele>
        <time>2026-08-15T07:10:56.909Z</time>
      </trkpt>
      <trkpt lat="49.53863" lon="3.52746">
        <ele>180.480495</ele>
        <time>2026-08-15T07:11:04.915Z</time>
      </trkpt>
      <trkpt lat="49.53872" lon="3.52749">
        <ele>180.545253</ele>
        <time>2026-08-15T07:11:10.904Z</time>
      </trkpt>
      <trkpt lat="49.53882" lon="3.52745">
        <ele>180.613774</ele>
        <time>2026-08-15T07:11:17.903Z</time>
      </trkpt>
      <trkpt lat="49.53891" lon="3.52745">
        <ele>180.681615</ele>
        <time>2026-08-15T07:11:23.918Z</time>
      </trkpt>
      <trkpt lat="49.53901" lon="3.52748">
        <ele>180.750862</ele>
        <time>2026-08-15T07:11:30.906Z</time>
      </trkpt>
      <trkpt lat="49.53911" lon="3.52747">
        <ele>180.821503</ele>
        <time>2026-08-15T07:11:37.916Z</time>
      </trkpt>
      <trkpt lat="49.5392" lon="3.52747">
        <ele>180.885148</ele>
        <time>2026-08-15T07:11:44.905Z</time>
      </trkpt>
      <trkpt lat="49.53929" lon="3.52748">
        <ele>180.951292</ele>
        <time>2026-08-15T07:11:50.908Z</time>
      </trkpt>
      <trkpt lat="49.53939" lon="3.52755">
        <ele>181.025637</ele>
        <time>2026-08-15T07:11:55.907Z</time>
      </trkpt>
      <trkpt lat="49.53947" lon="3.5276">
        <ele>181.089361</ele>
        <time>2026-08-15T07:11:59.913Z</time>
      </trkpt>
      <trkpt lat="49.53955" lon="3.52767">
        <ele>181.153236</ele>
        <time>2026-08-15T07:12:03.911Z</time>
      </trkpt>
      <trkpt lat="49.53965" lon="3.52775">
        <ele>181.231995</ele>
        <time>2026-08-15T07:12:08.907Z</time>
      </trkpt>
      <trkpt lat="49.53975" lon="3.52781">
        <ele>181.311381</ele>
        <time>2026-08-15T07:12:13.924Z</time>
      </trkpt>
      <trkpt lat="49.53985" lon="3.52787">
        <ele>181.430785</ele>
        <time>2026-08-15T07:12:18.920Z</time>
      </trkpt>
      <trkpt lat="49.53995" lon="3.52795">
        <ele>181.553657</ele>
        <time>2026-08-15T07:12:23.918Z</time>
      </trkpt>
      <trkpt lat="49.54003" lon="3.52801">
        <ele>181.656283</ele>
        <time>2026-08-15T07:12:27.928Z</time>
      </trkpt>
      <trkpt lat="49.54012" lon="3.52809">
        <ele>181.769209</ele>
        <time>2026-08-15T07:12:32.922Z</time>
      </trkpt>
      <trkpt lat="49.54021" lon="3.52817">
        <ele>181.894784</ele>
        <time>2026-08-15T07:12:37.920Z</time>
      </trkpt>
      <trkpt lat="49.5403" lon="3.52824">
        <ele>181.999984</ele>
        <time>2026-08-15T07:12:41.923Z</time>
      </trkpt>
      <trkpt lat="49.54038" lon="3.52828">
        <ele>182.101677</ele>
        <time>2026-08-15T07:12:45.924Z</time>
      </trkpt>
      <trkpt lat="49.54047" lon="3.52835">
        <ele>182.214623</ele>
        <time>2026-08-15T07:12:50.924Z</time>
      </trkpt>
      <trkpt lat="49.54055" lon="3.52841">
        <ele>182.315792</ele>
        <time>2026-08-15T07:12:55.919Z</time>
      </trkpt>
      <trkpt lat="49.54063" lon="3.52849">
        <ele>182.424393</ele>
        <time>2026-08-15T07:13:04.913Z</time>
      </trkpt>
      <trkpt lat="49.54072" lon="3.5286">
        <ele>182.548383</ele>
        <time>2026-08-15T07:13:10.913Z</time>
      </trkpt>
      <trkpt lat="49.54079" lon="3.52869">
        <ele>182.65174</ele>
        <time>2026-08-15T07:13:14.920Z</time>
      </trkpt>
      <trkpt lat="49.54087" lon="3.52877">
        <ele>182.757393</ele>
        <time>2026-08-15T07:13:18.923Z</time>
      </trkpt>
      <trkpt lat="49.54096" lon="3.52885">
        <ele>182.879603</ele>
        <time>2026-08-15T07:13:23.922Z</time>
      </trkpt>
      <trkpt lat="49.54106" lon="3.5289">
        <ele>182.997333</ele>
        <time>2026-08-15T07:13:28.921Z</time>
      </trkpt>
      <trkpt lat="49.54116" lon="3.52893">
        <ele>183.106232</ele>
        <time>2026-08-15T07:13:32.921Z</time>
      </trkpt>
      <trkpt lat="49.54126" lon="3.529">
        <ele>183.231567</ele>
        <time>2026-08-15T07:13:37.922Z</time>
      </trkpt>
      <trkpt lat="49.54135" lon="3.52906">
        <ele>183.327207</ele>
        <time>2026-08-15T07:13:42.919Z</time>
      </trkpt>
      <trkpt lat="49.54144" lon="3.52911">
        <ele>183.286838</ele>
        <time>2026-08-15T07:13:47.921Z</time>
      </trkpt>
      <trkpt lat="49.54153" lon="3.52915">
        <ele>183.247281</ele>
        <time>2026-08-15T07:13:51.917Z</time>
      </trkpt>
      <trkpt lat="49.54162" lon="3.52921">
        <ele>183.208434</ele>
        <time>2026-08-15T07:13:56.917Z</time>
      </trkpt>
      <trkpt lat="49.54171" lon="3.52927">
        <ele>183.168017</ele>
        <time>2026-08-15T07:14:01.904Z</time>
      </trkpt>
      <trkpt lat="49.54178" lon="3.52938">
        <ele>183.126695</ele>
        <time>2026-08-15T07:14:06.918Z</time>
      </trkpt>
      <trkpt lat="49.54188" lon="3.52939">
        <ele>183.087272</ele>
        <time>2026-08-15T07:14:27.906Z</time>
      </trkpt>
      <trkpt lat="49.54197" lon="3.52941">
        <ele>183.049475</ele>
        <time>2026-08-15T07:14:34.901Z</time>
      </trkpt>
      <trkpt lat="49.54205" lon="3.52945">
        <ele>183.011657</ele>
        <time>2026-08-15T07:14:48.902Z</time>
      </trkpt>
      <trkpt lat="49.54215" lon="3.5295">
        <ele>182.968709</ele>
        <time>2026-08-15T07:14:53.907Z</time>
      </trkpt>
      <trkpt lat="49.54226" lon="3.52955">
        <ele>182.922676</ele>
        <time>2026-08-15T07:14:58.909Z</time>
      </trkpt>
      <trkpt lat="49.54234" lon="3.5296">
        <ele>182.884832</ele>
        <time>2026-08-15T07:15:02.910Z</time>
      </trkpt>
      <trkpt lat="49.54243" lon="3.52964">
        <ele>182.846216</ele>
        <time>2026-08-15T07:15:06.905Z</time>
      </trkpt>
      <trkpt lat="49.54254" lon="3.52971">
        <ele>182.79957</ele>
        <time>2026-08-15T07:15:11.919Z</time>
      </trkpt>
      <trkpt lat="49.54263" lon="3.52979">
        <ele>182.756876</ele>
        <time>2026-08-15T07:15:16.924Z</time>
      </trkpt>
      <trkpt lat="49.54272" lon="3.52985">
        <ele>182.713917</ele>
        <time>2026-08-15T07:15:21.920Z</time>
      </trkpt>
      <trkpt lat="49.54281" lon="3.52991">
        <ele>182.675268</ele>
        <time>2026-08-15T07:15:25.915Z</time>
      </trkpt>
      <trkpt lat="49.54289" lon="3.52997">
        <ele>182.635766</ele>
        <time>2026-08-15T07:15:29.919Z</time>
      </trkpt>
      <trkpt lat="49.54296" lon="3.53007">
        <ele>182.59776</ele>
        <time>2026-08-15T07:15:33.915Z</time>
      </trkpt>
      <trkpt lat="49.54304" lon="3.53017">
        <ele>182.515977</ele>
        <time>2026-08-15T07:15:38.922Z</time>
      </trkpt>
      <trkpt lat="49.54312" lon="3.53029">
        <ele>182.414227</ele>
        <time>2026-08-15T07:15:43.921Z</time>
      </trkpt>
      <trkpt lat="49.5432" lon="3.5304">
        <ele>182.313165</ele>
        <time>2026-08-15T07:15:47.907Z</time>
      </trkpt>
      <trkpt lat="49.54327" lon="3.53052">
        <ele>182.217435</ele>
        <time>2026-08-15T07:15:51.917Z</time>
      </trkpt>
      <trkpt lat="49.54334" lon="3.53062">
        <ele>182.124839</ele>
        <time>2026-08-15T07:15:57.911Z</time>
      </trkpt>
      <trkpt lat="49.54343" lon="3.53073">
        <ele>182.026416</ele>
        <time>2026-08-15T07:16:02.923Z</time>
      </trkpt>
      <trkpt lat="49.5435" lon="3.53083">
        <ele>181.936935</ele>
        <time>2026-08-15T07:16:06.925Z</time>
      </trkpt>
      <trkpt lat="49.54357" lon="3.53096">
        <ele>181.833176</ele>
        <time>2026-08-15T07:16:11.922Z</time>
      </trkpt>
      <trkpt lat="49.54363" lon="3.53108">
        <ele>181.743059</ele>
        <time>2026-08-15T07:16:16.919Z</time>
      </trkpt>
      <trkpt lat="49.5437" lon="3.53117">
        <ele>181.658899</ele>
        <time>2026-08-15T07:16:20.923Z</time>
      </trkpt>
      <trkpt lat="49.54378" lon="3.53129">
        <ele>181.55715</ele>
        <time>2026-08-15T07:16:25.918Z</time>
      </trkpt>
      <trkpt lat="49.54385" lon="3.53139">
        <ele>181.469707</ele>
        <time>2026-08-15T07:16:29.922Z</time>
      </trkpt>
      <trkpt lat="49.54392" lon="3.53149">
        <ele>181.380098</ele>
        <time>2026-08-15T07:16:33.923Z</time>
      </trkpt>
      <trkpt lat="49.54399" lon="3.53159">
        <ele>181.287753</ele>
        <time>2026-08-15T07:16:38.920Z</time>
      </trkpt>
      <trkpt lat="49.54407" lon="3.5317">
        <ele>181.191051</ele>
        <time>2026-08-15T07:16:43.923Z</time>
      </trkpt>
      <trkpt lat="49.54416" lon="3.5318">
        <ele>181.090131</ele>
        <time>2026-08-15T07:16:48.922Z</time>
      </trkpt>
      <trkpt lat="49.54423" lon="3.5319">
        <ele>181.001217</ele>
        <time>2026-08-15T07:16:52.924Z</time>
      </trkpt>
      <trkpt lat="49.54431" lon="3.53199">
        <ele>180.929222</ele>
        <time>2026-08-15T07:16:56.920Z</time>
      </trkpt>
      <trkpt lat="49.54439" lon="3.53207">
        <ele>180.947463</ele>
        <time>2026-08-15T07:17:00.918Z</time>
      </trkpt>
      <trkpt lat="49.54448" lon="3.53212">
        <ele>180.965156</ele>
        <time>2026-08-15T07:17:04.923Z</time>
      </trkpt>
      <trkpt lat="49.54457" lon="3.53214">
        <ele>180.983049</ele>
        <time>2026-08-15T07:17:08.931Z</time>
      </trkpt>
      <trkpt lat="49.54467" lon="3.53218">
        <ele>181.00243</ele>
        <time>2026-08-15T07:17:12.920Z</time>
      </trkpt>
      <trkpt lat="49.54476" lon="3.53221">
        <ele>181.019977</ele>
        <time>2026-08-15T07:17:16.923Z</time>
      </trkpt>
      <trkpt lat="49.54485" lon="3.53225">
        <ele>181.037953</ele>
        <time>2026-08-15T07:17:20.922Z</time>
      </trkpt>
      <trkpt lat="49.54495" lon="3.53231">
        <ele>181.058841</ele>
        <time>2026-08-15T07:17:25.920Z</time>
      </trkpt>
      <trkpt lat="49.54506" lon="3.53236">
        <ele>181.079973</ele>
        <time>2026-08-15T07:17:30.921Z</time>
      </trkpt>
      <trkpt lat="49.54514" lon="3.53241">
        <ele>181.097301</ele>
        <time>2026-08-15T07:17:34.925Z</time>
      </trkpt>
      <trkpt lat="49.54525" lon="3.53245">
        <ele>181.117725</ele>
        <time>2026-08-15T07:17:39.918Z</time>
      </trkpt>
      <trkpt lat="49.54533" lon="3.53252">
        <ele>181.135488</ele>
        <time>2026-08-15T07:17:43.916Z</time>
      </trkpt>
      <trkpt lat="49.54537" lon="3.53266">
        <ele>181.154612</ele>
        <time>2026-08-15T07:17:48.917Z</time>
      </trkpt>
      <trkpt lat="49.54541" lon="3.53282">
        <ele>181.175267</ele>
        <time>2026-08-15T07:17:53.921Z</time>
      </trkpt>
      <trkpt lat="49.54546" lon="3.53296">
        <ele>181.194937</ele>
        <time>2026-08-15T07:17:59.918Z</time>
      </trkpt>
      <trkpt lat="49.54545" lon="3.5331">
        <ele>181.212369</ele>
        <time>2026-08-15T07:18:15.910Z</time>
      </trkpt>
      <trkpt lat="49.54546" lon="3.53325">
        <ele>181.230921</ele>
        <time>2026-08-15T07:18:24.902Z</time>
      </trkpt>
      <trkpt lat="49.54541" lon="3.53339">
        <ele>181.250619</ele>
        <time>2026-08-15T07:18:32.908Z</time>
      </trkpt>
      <trkpt lat="49.54535" lon="3.5335">
        <ele>181.257297</ele>
        <time>2026-08-15T07:18:39.911Z</time>
      </trkpt>
      <trkpt lat="49.54528" lon="3.5336">
        <ele>180.513845</ele>
        <time>2026-08-15T07:18:47.911Z</time>
      </trkpt>
      <trkpt lat="49.54522" lon="3.53371">
        <ele>179.786266</ele>
        <time>2026-08-15T07:18:56.907Z</time>
      </trkpt>
      <trkpt lat="49.54514" lon="3.53379">
        <ele>179.00286</ele>
        <time>2026-08-15T07:19:16.929Z</time>
      </trkpt>
      <trkpt lat="49.54506" lon="3.53387">
        <ele>178.253657</ele>
        <time>2026-08-15T07:19:24.900Z</time>
      </trkpt>
      <trkpt lat="49.54499" lon="3.53397">
        <ele>177.5001</ele>
        <time>2026-08-15T07:19:29.904Z</time>
      </trkpt>
      <trkpt lat="49.54493" lon="3.53407">
        <ele>176.762239</ele>
        <time>2026-08-15T07:19:33.901Z</time>
      </trkpt>
      <trkpt lat="49.54488" lon="3.53421">
        <ele>175.919354</ele>
        <time>2026-08-15T07:19:37.901Z</time>
      </trkpt>
      <trkpt lat="49.54483" lon="3.53433">
        <ele>175.172955</ele>
        <time>2026-08-15T07:19:41.907Z</time>
      </trkpt>
      <trkpt lat="49.54477" lon="3.53448">
        <ele>174.299533</ele>
        <time>2026-08-15T07:19:46.901Z</time>
      </trkpt>
      <trkpt lat="49.54471" lon="3.53459">
        <ele>173.523445</ele>
        <time>2026-08-15T07:19:50.906Z</time>
      </trkpt>
      <trkpt lat="49.54462" lon="3.5347">
        <ele>172.627177</ele>
        <time>2026-08-15T07:19:54.923Z</time>
      </trkpt>
      <trkpt lat="49.54456" lon="3.5348">
        <ele>171.898414</ele>
        <time>2026-08-15T07:19:57.923Z</time>
      </trkpt>
      <trkpt lat="49.54451" lon="3.53492">
        <ele>171.143625</ele>
        <time>2026-08-15T07:20:00.926Z</time>
      </trkpt>
      <trkpt lat="49.54446" lon="3.53505">
        <ele>170.40479</ele>
        <time>2026-08-15T07:20:03.920Z</time>
      </trkpt>
      <trkpt lat="49.5444" lon="3.53518">
        <ele>169.545029</ele>
        <time>2026-08-15T07:20:07.906Z</time>
      </trkpt>
      <trkpt lat="49.54434" lon="3.53528">
        <ele>168.812618</ele>
        <time>2026-08-15T07:20:10.920Z</time>
      </trkpt>
      <trkpt lat="49.54427" lon="3.5354">
        <ele>167.970287</ele>
        <time>2026-08-15T07:20:14.929Z</time>
      </trkpt>
      <trkpt lat="49.54419" lon="3.53551">
        <ele>167.118147</ele>
        <time>2026-08-15T07:20:18.919Z</time>
      </trkpt>
      <trkpt lat="49.54411" lon="3.53561">
        <ele>167.145372</ele>
        <time>2026-08-15T07:20:22.923Z</time>
      </trkpt>
      <trkpt lat="49.54403" lon="3.53571">
        <ele>167.582232</ele>
        <time>2026-08-15T07:20:26.927Z</time>
      </trkpt>
      <trkpt lat="49.54396" lon="3.53582">
        <ele>168.015864</ele>
        <time>2026-08-15T07:20:30.922Z</time>
      </trkpt>
      <trkpt lat="49.5439" lon="3.53595">
        <ele>168.449472</ele>
        <time>2026-08-15T07:20:34.915Z</time>
      </trkpt>
      <trkpt lat="49.54388" lon="3.53611">
        <ele>168.917573</ele>
        <time>2026-08-15T07:20:38.918Z</time>
      </trkpt>
      <trkpt lat="49.54386" lon="3.53625">
        <ele>169.311892</ele>
        <time>2026-08-15T07:20:41.918Z</time>
      </trkpt>
      <trkpt lat="49.54383" lon="3.53641">
        <ele>169.772033</ele>
        <time>2026-08-15T07:20:45.922Z</time>
      </trkpt>
      <trkpt lat="49.54378" lon="3.53655">
        <ele>170.201216</ele>
        <time>2026-08-15T07:20:49.919Z</time>
      </trkpt>
      <trkpt lat="49.54373" lon="3.53671">
        <ele>170.690035</ele>
        <time>2026-08-15T07:20:53.902Z</time>
      </trkpt>
      <trkpt lat="49.54373" lon="3.53687">
        <ele>171.121797</ele>
        <time>2026-08-15T07:20:57.927Z</time>
      </trkpt>
      <trkpt lat="49.54368" lon="3.53701">
        <ele>171.564054</ele>
        <time>2026-08-15T07:21:01.919Z</time>
      </trkpt>
      <trkpt lat="49.54364" lon="3.53717">
        <ele>172.043317</ele>
        <time>2026-08-15T07:21:05.918Z</time>
      </trkpt>
      <trkpt lat="49.54361" lon="3.53733">
        <ele>172.492854</ele>
        <time>2026-08-15T07:21:09.915Z</time>
      </trkpt>
      <trkpt lat="49.54359" lon="3.53748">
        <ele>172.926483</ele>
        <time>2026-08-15T07:21:13.909Z</time>
      </trkpt>
      <trkpt lat="49.54358" lon="3.53763">
        <ele>173.325431</ele>
        <time>2026-08-15T07:21:17.921Z</time>
      </trkpt>
      <trkpt lat="49.54357" lon="3.53777">
        <ele>173.718334</ele>
        <time>2026-08-15T07:21:21.917Z</time>
      </trkpt>
      <trkpt lat="49.54356" lon="3.53793">
        <ele>174.178233</ele>
        <time>2026-08-15T07:21:26.920Z</time>
      </trkpt>
      <trkpt lat="49.54352" lon="3.53808">
        <ele>174.653252</ele>
        <time>2026-08-15T07:21:30.926Z</time>
      </trkpt>
      <trkpt lat="49.54347" lon="3.53823">
        <ele>175.249683</ele>
        <time>2026-08-15T07:21:34.920Z</time>
      </trkpt>
      <trkpt lat="49.54343" lon="3.53837">
        <ele>175.778057</ele>
        <time>2026-08-15T07:21:38.919Z</time>
      </trkpt>
      <trkpt lat="49.54341" lon="3.53852">
        <ele>176.324263</ele>
        <time>2026-08-15T07:21:42.920Z</time>
      </trkpt>
      <trkpt lat="49.54341" lon="3.53869">
        <ele>176.937556</ele>
        <time>2026-08-15T07:21:46.920Z</time>
      </trkpt>
      <trkpt lat="49.5434" lon="3.53885">
        <ele>177.515837</ele>
        <time>2026-08-15T07:21:50.923Z</time>
      </trkpt>
      <trkpt lat="49.54337" lon="3.53901">
        <ele>178.077293</ele>
        <time>2026-08-15T07:21:54.918Z</time>
      </trkpt>
      <trkpt lat="49.54335" lon="3.53914">
        <ele>178.569542</ele>
        <time>2026-08-15T07:21:58.920Z</time>
      </trkpt>
      <trkpt lat="49.5433" lon="3.53926">
        <ele>179.080901</ele>
        <time>2026-08-15T07:22:03.924Z</time>
      </trkpt>
      <trkpt lat="49.54324" lon="3.53937">
        <ele>179.578506</ele>
        <time>2026-08-15T07:22:08.922Z</time>
      </trkpt>
      <trkpt lat="49.54314" lon="3.53943">
        <ele>180.172626</ele>
        <time>2026-08-15T07:22:13.923Z</time>
      </trkpt>
      <trkpt lat="49.54306" lon="3.53951">
        <ele>180.6822</ele>
        <time>2026-08-15T07:22:19.921Z</time>
      </trkpt>
      <trkpt lat="49.54297" lon="3.53957">
        <ele>181.219166</ele>
        <time>2026-08-15T07:22:29.903Z</time>
      </trkpt>
      <trkpt lat="49.54289" lon="3.53963">
        <ele>181.713084</ele>
        <time>2026-08-15T07:22:36.919Z</time>
      </trkpt>
      <trkpt lat="49.54296" lon="3.53943">
        <ele>182.526516</ele>
        <time>2026-08-15T07:24:02.910Z</time>
      </trkpt>
      <trkpt lat="49.543" lon="3.53931">
        <ele>183.029101</ele>
        <time>2026-08-15T07:24:07.903Z</time>
      </trkpt>
      <trkpt lat="49.54305" lon="3.53917">
        <ele>183.579596</ele>
        <time>2026-08-15T07:24:17.903Z</time>
      </trkpt>
      <trkpt lat="49.54311" lon="3.53906">
        <ele>184.095944</ele>
        <time>2026-08-15T07:24:22.904Z</time>
      </trkpt>
      <trkpt lat="49.54318" lon="3.53895">
        <ele>184.435601</ele>
        <time>2026-08-15T07:24:29.913Z</time>
      </trkpt>
      <trkpt lat="49.54317" lon="3.5388">
        <ele>184.622851</ele>
        <time>2026-08-15T07:24:37.914Z</time>
      </trkpt>
      <trkpt lat="49.54316" lon="3.53864">
        <ele>184.813657</ele>
        <time>2026-08-15T07:24:43.904Z</time>
      </trkpt>
      <trkpt lat="49.54311" lon="3.53849">
        <ele>185.024448</ele>
        <time>2026-08-15T07:24:49.895Z</time>
      </trkpt>
      <trkpt lat="49.54305" lon="3.53834">
        <ele>185.239381</ele>
        <time>2026-08-15T07:24:53.904Z</time>
      </trkpt>
      <trkpt lat="49.54302" lon="3.53819">
        <ele>185.426399</ele>
        <time>2026-08-15T07:24:57.903Z</time>
      </trkpt>
      <trkpt lat="49.54302" lon="3.53805">
        <ele>185.603997</ele>
        <time>2026-08-15T07:25:01.916Z</time>
      </trkpt>
      <trkpt lat="49.54298" lon="3.53788">
        <ele>185.827363</ele>
        <time>2026-08-15T07:25:05.926Z</time>
      </trkpt>
      <trkpt lat="49.54294" lon="3.53775">
        <ele>186.000518</ele>
        <time>2026-08-15T07:25:08.922Z</time>
      </trkpt>
      <trkpt lat="49.54293" lon="3.53759">
        <ele>186.193381</ele>
        <time>2026-08-15T07:25:12.921Z</time>
      </trkpt>
      <trkpt lat="49.54286" lon="3.53746">
        <ele>186.396852</ele>
        <time>2026-08-15T07:25:16.915Z</time>
      </trkpt>
      <trkpt lat="49.54278" lon="3.53729">
        <ele>186.655962</ele>
        <time>2026-08-15T07:26:19.911Z</time>
      </trkpt>
      <trkpt lat="49.54275" lon="3.53716">
        <ele>186.83073</ele>
        <time>2026-08-15T07:26:26.914Z</time>
      </trkpt>
      <trkpt lat="49.54271" lon="3.53703">
        <ele>187.004205</ele>
        <time>2026-08-15T07:26:32.901Z</time>
      </trkpt>
      <trkpt lat="49.54267" lon="3.53689">
        <ele>187.192895</ele>
        <time>2026-08-15T07:26:40.899Z</time>
      </trkpt>
      <trkpt lat="49.54261" lon="3.53677">
        <ele>187.377414</ele>
        <time>2026-08-15T07:26:47.912Z</time>
      </trkpt>
      <trkpt lat="49.54255" lon="3.53664">
        <ele>187.575012</ele>
        <time>2026-08-15T07:26:53.901Z</time>
      </trkpt>
      <trkpt lat="49.54249" lon="3.53653">
        <ele>187.726559</ele>
        <time>2026-08-15T07:26:59.904Z</time>
      </trkpt>
      <trkpt lat="49.54243" lon="3.53642">
        <ele>187.542551</ele>
        <time>2026-08-15T07:27:05.903Z</time>
      </trkpt>
      <trkpt lat="49.54237" lon="3.53629">
        <ele>187.34175</ele>
        <time>2026-08-15T07:27:12.906Z</time>
      </trkpt>
      <trkpt lat="49.54231" lon="3.53616">
        <ele>187.150159</ele>
        <time>2026-08-15T07:27:20.909Z</time>
      </trkpt>
      <trkpt lat="49.54226" lon="3.53603">
        <ele>186.951064</ele>
        <time>2026-08-15T07:27:26.901Z</time>
      </trkpt>
      <trkpt lat="49.54222" lon="3.53589">
        <ele>186.75111</ele>
        <time>2026-08-15T07:27:33.909Z</time>
      </trkpt>
      <trkpt lat="49.54218" lon="3.53575">
        <ele>186.564595</ele>
        <time>2026-08-15T07:27:39.911Z</time>
      </trkpt>
      <trkpt lat="49.54214" lon="3.53563">
        <ele>186.386015</ele>
        <time>2026-08-15T07:27:45.907Z</time>
      </trkpt>
      <trkpt lat="49.54209" lon="3.5355">
        <ele>186.202905</ele>
        <time>2026-08-15T07:27:51.907Z</time>
      </trkpt>
      <trkpt lat="49.54205" lon="3.53536">
        <ele>186.008038</ele>
        <time>2026-08-15T07:27:58.908Z</time>
      </trkpt>
      <trkpt lat="49.542" lon="3.53523">
        <ele>185.808863</ele>
        <time>2026-08-15T07:28:05.902Z</time>
      </trkpt>
      <trkpt lat="49.54194" lon="3.53509">
        <ele>185.609688</ele>
        <time>2026-08-15T07:28:12.914Z</time>
      </trkpt>
      <trkpt lat="49.5419" lon="3.53496">
        <ele>185.419928</ele>
        <time>2026-08-15T07:28:18.915Z</time>
      </trkpt>
      <trkpt lat="49.54184" lon="3.53482">
        <ele>185.215272</ele>
        <time>2026-08-15T07:28:24.905Z</time>
      </trkpt>
      <trkpt lat="49.5418" lon="3.53469">
        <ele>185.028342</ele>
        <time>2026-08-15T07:28:30.905Z</time>
      </trkpt>
      <trkpt lat="49.54176" lon="3.53456">
        <ele>184.841212</ele>
        <time>2026-08-15T07:28:37.912Z</time>
      </trkpt>
      <trkpt lat="49.5417" lon="3.53443">
        <ele>184.643259</ele>
        <time>2026-08-15T07:28:44.900Z</time>
      </trkpt>
      <trkpt lat="49.54166" lon="3.53429">
        <ele>184.442768</ele>
        <time>2026-08-15T07:28:51.909Z</time>
      </trkpt>
      <trkpt lat="49.54162" lon="3.53414">
        <ele>184.247895</ele>
        <time>2026-08-15T07:28:58.908Z</time>
      </trkpt>
      <trkpt lat="49.54158" lon="3.53401">
        <ele>184.061996</ele>
        <time>2026-08-15T07:29:05.911Z</time>
      </trkpt>
      <trkpt lat="49.54154" lon="3.53389">
        <ele>183.877245</ele>
        <time>2026-08-15T07:29:11.906Z</time>
      </trkpt>
      <trkpt lat="49.54149" lon="3.53376">
        <ele>183.696817</ele>
        <time>2026-08-15T07:29:17.902Z</time>
      </trkpt>
      <trkpt lat="49.54144" lon="3.53363">
        <ele>183.493595</ele>
        <time>2026-08-15T07:29:24.910Z</time>
      </trkpt>
      <trkpt lat="49.54139" lon="3.53349">
        <ele>183.300198</ele>
        <time>2026-08-15T07:29:31.913Z</time>
      </trkpt>
      <trkpt lat="49.54134" lon="3.53336">
        <ele>183.10445</ele>
        <time>2026-08-15T07:29:38.911Z</time>
      </trkpt>
      <trkpt lat="49.54129" lon="3.53324">
        <ele>182.91717</ele>
        <time>2026-08-15T07:29:45.906Z</time>
      </trkpt>
      <trkpt lat="49.54126" lon="3.5331">
        <ele>182.724492</ele>
        <time>2026-08-15T07:29:53.906Z</time>
      </trkpt>
      <trkpt lat="49.54122" lon="3.53295">
        <ele>182.520143</ele>
        <time>2026-08-15T07:30:02.905Z</time>
      </trkpt>
      <trkpt lat="49.54117" lon="3.53282">
        <ele>182.324395</ele>
        <time>2026-08-15T07:30:09.903Z</time>
      </trkpt>
      <trkpt lat="49.54112" lon="3.5327">
        <ele>182.146437</ele>
        <time>2026-08-15T07:30:16.905Z</time>
      </trkpt>
      <trkpt lat="49.54109" lon="3.53256">
        <ele>181.964159</ele>
        <time>2026-08-15T07:30:24.907Z</time>
      </trkpt>
      <trkpt lat="49.54103" lon="3.53247">
        <ele>181.784569</ele>
        <time>2026-08-15T07:30:38.908Z</time>
      </trkpt>
      <trkpt lat="49.54095" lon="3.53237">
        <ele>181.585661</ele>
        <time>2026-08-15T07:30:45.908Z</time>
      </trkpt>
      <trkpt lat="49.54086" lon="3.53242">
        <ele>181.395343</ele>
        <time>2026-08-15T07:30:51.901Z</time>
      </trkpt>
      <trkpt lat="49.54079" lon="3.53255">
        <ele>181.189195</ele>
        <time>2026-08-15T07:30:59.915Z</time>
      </trkpt>
      <trkpt lat="49.54073" lon="3.53268">
        <ele>180.985958</ele>
        <time>2026-08-15T07:31:06.906Z</time>
      </trkpt>
      <trkpt lat="49.54069" lon="3.53281">
        <ele>180.795033</ele>
        <time>2026-08-15T07:31:13.924Z</time>
      </trkpt>
      <trkpt lat="49.54063" lon="3.53293">
        <ele>180.627377</ele>
        <time>2026-08-15T07:31:19.907Z</time>
      </trkpt>
      <trkpt lat="49.54058" lon="3.53304">
        <ele>180.503645</ele>
        <time>2026-08-15T07:31:25.906Z</time>
      </trkpt>
      <trkpt lat="49.54051" lon="3.53315">
        <ele>180.379641</ele>
        <time>2026-08-15T07:31:32.911Z</time>
      </trkpt>
      <trkpt lat="49.54046" lon="3.53329">
        <ele>180.243905</ele>
        <time>2026-08-15T07:31:39.902Z</time>
      </trkpt>
      <trkpt lat="49.54047" lon="3.53343">
        <ele>180.121777</ele>
        <time>2026-08-15T07:31:45.903Z</time>
      </trkpt>
      <trkpt lat="49.54039" lon="3.53353">
        <ele>179.987675</ele>
        <time>2026-08-15T07:31:53.915Z</time>
      </trkpt>
      <trkpt lat="49.54038" lon="3.53367">
        <ele>179.865369</ele>
        <time>2026-08-15T07:32:00.909Z</time>
      </trkpt>
      <trkpt lat="49.54037" lon="3.53383">
        <ele>179.728507</ele>
        <time>2026-08-15T07:32:08.915Z</time>
      </trkpt>
      <trkpt lat="49.54036" lon="3.53399">
        <ele>179.593883</ele>
        <time>2026-08-15T07:32:14.914Z</time>
      </trkpt>
      <trkpt lat="49.54032" lon="3.53413">
        <ele>179.461424</ele>
        <time>2026-08-15T07:32:20.903Z</time>
      </trkpt>
      <trkpt lat="49.54032" lon="3.53427">
        <ele>179.341193</ele>
        <time>2026-08-15T07:32:26.915Z</time>
      </trkpt>
      <trkpt lat="49.54033" lon="3.53442">
        <ele>179.208614</ele>
        <time>2026-08-15T07:32:32.905Z</time>
      </trkpt>
      <trkpt lat="49.54032" lon="3.53458">
        <ele>179.075475</ele>
        <time>2026-08-15T07:32:39.925Z</time>
      </trkpt>
      <trkpt lat="49.54033" lon="3.53473">
        <ele>178.945769</ele>
        <time>2026-08-15T07:32:45.903Z</time>
      </trkpt>
      <trkpt lat="49.54031" lon="3.53487">
        <ele>178.822659</ele>
        <time>2026-08-15T07:32:50.914Z</time>
      </trkpt>
      <trkpt lat="49.54022" lon="3.53493">
        <ele>178.69983</ele>
        <time>2026-08-15T07:32:54.899Z</time>
      </trkpt>
      <trkpt lat="49.54013" lon="3.53495">
        <ele>178.573609</ele>
        <time>2026-08-15T07:32:58.926Z</time>
      </trkpt>
      <trkpt lat="49.54003" lon="3.53497">
        <ele>178.439249</ele>
        <time>2026-08-15T07:33:03.918Z</time>
      </trkpt>
      <trkpt lat="49.53995" lon="3.53506">
        <ele>178.311615</ele>
        <time>2026-08-15T07:33:10.919Z</time>
      </trkpt>
      <trkpt lat="49.53997" lon="3.5352">
        <ele>178.566556</ele>
        <time>2026-08-15T07:33:17.904Z</time>
      </trkpt>
      <trkpt lat="49.53999" lon="3.53536">
        <ele>178.902734</ele>
        <time>2026-08-15T07:33:24.918Z</time>
      </trkpt>
      <trkpt lat="49.54003" lon="3.53551">
        <ele>179.253728</ele>
        <time>2026-08-15T07:33:32.909Z</time>
      </trkpt>
      <trkpt lat="49.54002" lon="3.53565">
        <ele>179.555472</ele>
        <time>2026-08-15T07:33:37.906Z</time>
      </trkpt>
      <trkpt lat="49.54003" lon="3.53581">
        <ele>179.911551</ele>
        <time>2026-08-15T07:33:42.915Z</time>
      </trkpt>
      <trkpt lat="49.54005" lon="3.53597">
        <ele>180.246701</ele>
        <time>2026-08-15T07:33:46.909Z</time>
      </trkpt>
      <trkpt lat="49.54007" lon="3.53612">
        <ele>180.574982</ele>
        <time>2026-08-15T07:33:50.909Z</time>
      </trkpt>
      <trkpt lat="49.5401" lon="3.53628">
        <ele>180.94559</ele>
        <time>2026-08-15T07:33:55.914Z</time>
      </trkpt>
      <trkpt lat="49.54013" lon="3.53644">
        <ele>181.290122</ele>
        <time>2026-08-15T07:34:00.919Z</time>
      </trkpt>
      <trkpt lat="49.54012" lon="3.53659">
        <ele>181.628401</ele>
        <time>2026-08-15T07:34:05.924Z</time>
      </trkpt>
      <trkpt lat="49.54009" lon="3.53674">
        <ele>181.963086</ele>
        <time>2026-08-15T07:34:10.921Z</time>
      </trkpt>
      <trkpt lat="49.54007" lon="3.5369">
        <ele>182.313744</ele>
        <time>2026-08-15T07:34:15.903Z</time>
      </trkpt>
      <trkpt lat="49.54003" lon="3.53704">
        <ele>182.639822</ele>
        <time>2026-08-15T07:34:21.926Z</time>
      </trkpt>
      <trkpt lat="49.54002" lon="3.53719">
        <ele>182.968568</ele>
        <time>2026-08-15T07:34:28.918Z</time>
      </trkpt>
      <trkpt lat="49.54006" lon="3.53732">
        <ele>183.279166</ele>
        <time>2026-08-15T07:34:35.905Z</time>
      </trkpt>
      <trkpt lat="49.54007" lon="3.53746">
        <ele>183.582273</ele>
        <time>2026-08-15T07:34:41.903Z</time>
      </trkpt>
      <trkpt lat="49.54009" lon="3.53759">
        <ele>183.886469</ele>
        <time>2026-08-15T07:34:47.907Z</time>
      </trkpt>
      <trkpt lat="49.54012" lon="3.53775">
        <ele>184.222356</ele>
        <time>2026-08-15T07:34:54.908Z</time>
      </trkpt>
      <trkpt lat="49.54013" lon="3.5379">
        <ele>184.456414</ele>
        <time>2026-08-15T07:35:01.913Z</time>
      </trkpt>
      <trkpt lat="49.54016" lon="3.53804">
        <ele>184.68683</ele>
        <time>2026-08-15T07:35:08.910Z</time>
      </trkpt>
      <trkpt lat="49.54019" lon="3.53819">
        <ele>184.906017</ele>
        <time>2026-08-15T07:35:14.899Z</time>
      </trkpt>
      <trkpt lat="49.54015" lon="3.53831">
        <ele>185.11799</ele>
        <time>2026-08-15T07:35:19.910Z</time>
      </trkpt>
      <trkpt lat="49.54008" lon="3.5384">
        <ele>185.322895</ele>
        <time>2026-08-15T07:35:25.913Z</time>
      </trkpt>
      <trkpt lat="49.54007" lon="3.53856">
        <ele>185.554236</ele>
        <time>2026-08-15T07:35:33.911Z</time>
      </trkpt>
      <trkpt lat="49.54012" lon="3.53868">
        <ele>185.760857</ele>
        <time>2026-08-15T07:35:40.905Z</time>
      </trkpt>
      <trkpt lat="49.54022" lon="3.53872">
        <ele>185.993078</ele>
        <time>2026-08-15T07:35:47.907Z</time>
      </trkpt>
      <trkpt lat="49.54032" lon="3.53877">
        <ele>186.226398</ele>
        <time>2026-08-15T07:35:53.907Z</time>
      </trkpt>
      <trkpt lat="49.54041" lon="3.53881">
        <ele>186.444111</ele>
        <time>2026-08-15T07:35:59.920Z</time>
      </trkpt>
      <trkpt lat="49.5405" lon="3.53888">
        <ele>186.680923</ele>
        <time>2026-08-15T07:36:06.907Z</time>
      </trkpt>
      <trkpt lat="49.54058" lon="3.53898">
        <ele>186.907515</ele>
        <time>2026-08-15T07:36:12.903Z</time>
      </trkpt>
      <trkpt lat="49.54066" lon="3.53908">
        <ele>187.146732</ele>
        <time>2026-08-15T07:36:19.910Z</time>
      </trkpt>
      <trkpt lat="49.54072" lon="3.53919">
        <ele>187.361256</ele>
        <time>2026-08-15T07:36:25.902Z</time>
      </trkpt>
      <trkpt lat="49.54077" lon="3.53933">
        <ele>187.593338</ele>
        <time>2026-08-15T07:36:32.909Z</time>
      </trkpt>
      <trkpt lat="49.54082" lon="3.53947">
        <ele>187.823871</ele>
        <time>2026-08-15T07:36:39.914Z</time>
      </trkpt>
      <trkpt lat="49.54088" lon="3.53958">
        <ele>188.037534</ele>
        <time>2026-08-15T07:36:45.910Z</time>
      </trkpt>
      <trkpt lat="49.54094" lon="3.53968">
        <ele>188.24331</ele>
        <time>2026-08-15T07:36:52.908Z</time>
      </trkpt>
      <trkpt lat="49.54104" lon="3.53966">
        <ele>188.184174</ele>
        <time>2026-08-15T07:37:28.912Z</time>
      </trkpt>
      <trkpt lat="49.54113" lon="3.53963">
        <ele>187.951055</ele>
        <time>2026-08-15T07:37:34.905Z</time>
      </trkpt>
      <trkpt lat="49.54123" lon="3.53963">
        <ele>187.713135</ele>
        <time>2026-08-15T07:37:40.907Z</time>
      </trkpt>
      <trkpt lat="49.54132" lon="3.53963">
        <ele>187.470104</ele>
        <time>2026-08-15T07:37:47.903Z</time>
      </trkpt>
      <trkpt lat="49.54144" lon="3.53967">
        <ele>187.158268</ele>
        <time>2026-08-15T07:38:38.903Z</time>
      </trkpt>
      <trkpt lat="49.54153" lon="3.53974">
        <ele>186.894302</ele>
        <time>2026-08-15T07:38:44.906Z</time>
      </trkpt>
      <trkpt lat="49.54161" lon="3.53984">
        <ele>186.646631</ele>
        <time>2026-08-15T07:38:51.907Z</time>
      </trkpt>
      <trkpt lat="49.54168" lon="3.53992">
        <ele>186.410418</ele>
        <time>2026-08-15T07:38:58.908Z</time>
      </trkpt>
      <trkpt lat="49.54177" lon="3.53993">
        <ele>186.172035</ele>
        <time>2026-08-15T07:39:04.911Z</time>
      </trkpt>
      <trkpt lat="49.54187" lon="3.53991">
        <ele>185.934575</ele>
        <time>2026-08-15T07:39:10.898Z</time>
      </trkpt>
      <trkpt lat="49.54196" lon="3.53988">
        <ele>185.677954</ele>
        <time>2026-08-15T07:39:17.899Z</time>
      </trkpt>
      <trkpt lat="49.54205" lon="3.53986">
        <ele>185.445991</ele>
        <time>2026-08-15T07:39:24.906Z</time>
      </trkpt>
      <trkpt lat="49.54215" lon="3.53981">
        <ele>185.179474</ele>
        <time>2026-08-15T07:39:32.912Z</time>
      </trkpt>
      <trkpt lat="49.54223" lon="3.53973">
        <ele>184.935505</ele>
        <time>2026-08-15T07:39:39.915Z</time>
      </trkpt>
      <trkpt lat="49.54233" lon="3.5397">
        <ele>184.693999</ele>
        <time>2026-08-15T07:39:46.902Z</time>
      </trkpt>
      <trkpt lat="49.54241" lon="3.53979">
        <ele>184.446354</ele>
        <time>2026-08-15T07:39:52.920Z</time>
      </trkpt>
      <trkpt lat="49.54235" lon="3.53991">
        <ele>184.188253</ele>
        <time>2026-08-15T07:39:58.909Z</time>
      </trkpt>
      <trkpt lat="49.54227" lon="3.54">
        <ele>183.940016</ele>
        <time>2026-08-15T07:40:03.914Z</time>
      </trkpt>
      <trkpt lat="49.54219" lon="3.5401">
        <ele>183.613969</ele>
        <time>2026-08-15T07:40:08.905Z</time>
      </trkpt>
      <trkpt lat="49.54213" lon="3.54021">
        <ele>183.019622</ele>
        <time>2026-08-15T07:40:13.922Z</time>
      </trkpt>
      <trkpt lat="49.54207" lon="3.54032">
        <ele>182.435403</ele>
        <time>2026-08-15T07:40:18.908Z</time>
      </trkpt>
      <trkpt lat="49.542" lon="3.54043">
        <ele>181.830021</ele>
        <time>2026-08-15T07:40:22.925Z</time>
      </trkpt>
      <trkpt lat="49.54192" lon="3.54052">
        <ele>181.24805</ele>
        <time>2026-08-15T07:40:26.911Z</time>
      </trkpt>
      <trkpt lat="49.54185" lon="3.54064">
        <ele>180.577797</ele>
        <time>2026-08-15T07:40:30.921Z</time>
      </trkpt>
      <trkpt lat="49.54178" lon="3.54077">
        <ele>179.895054</ele>
        <time>2026-08-15T07:40:34.921Z</time>
      </trkpt>
      <trkpt lat="49.54171" lon="3.5409">
        <ele>179.234858</ele>
        <time>2026-08-15T07:40:38.927Z</time>
      </trkpt>
      <trkpt lat="49.54164" lon="3.54098">
        <ele>178.657372</ele>
        <time>2026-08-15T07:40:42.924Z</time>
      </trkpt>
      <trkpt lat="49.54157" lon="3.54108">
        <ele>178.092931</ele>
        <time>2026-08-15T07:40:52.915Z</time>
      </trkpt>
      <trkpt lat="49.54149" lon="3.54113">
        <ele>177.53594</ele>
        <time>2026-08-15T07:41:00.907Z</time>
      </trkpt>
      <trkpt lat="49.54142" lon="3.54121">
        <ele>176.973645</ele>
        <time>2026-08-15T07:41:07.902Z</time>
      </trkpt>
      <trkpt lat="49.54134" lon="3.54131">
        <ele>176.369607</ele>
        <time>2026-08-15T07:41:16.921Z</time>
      </trkpt>
      <trkpt lat="49.54126" lon="3.54138">
        <ele>175.810901</ele>
        <time>2026-08-15T07:41:22.904Z</time>
      </trkpt>
      <trkpt lat="49.54118" lon="3.54147">
        <ele>175.175321</ele>
        <time>2026-08-15T07:41:28.907Z</time>
      </trkpt>
      <trkpt lat="49.54108" lon="3.54152">
        <ele>174.505369</ele>
        <time>2026-08-15T07:41:33.905Z</time>
      </trkpt>
      <trkpt lat="49.54098" lon="3.5416">
        <ele>173.823303</ele>
        <time>2026-08-15T07:41:38.912Z</time>
      </trkpt>
      <trkpt lat="49.54089" lon="3.54165">
        <ele>173.212659</ele>
        <time>2026-08-15T07:41:42.915Z</time>
      </trkpt>
      <trkpt lat="49.54079" lon="3.54169">
        <ele>172.597672</ele>
        <time>2026-08-15T07:41:46.906Z</time>
      </trkpt>
      <trkpt lat="49.5407" lon="3.54176">
        <ele>171.866367</ele>
        <time>2026-08-15T07:41:50.918Z</time>
      </trkpt>
      <trkpt lat="49.54061" lon="3.54184">
        <ele>171.05824</ele>
        <time>2026-08-15T07:41:54.922Z</time>
      </trkpt>
      <trkpt lat="49.54051" lon="3.54192">
        <ele>170.265929</ele>
        <time>2026-08-15T07:41:58.917Z</time>
      </trkpt>
      <trkpt lat="49.54041" lon="3.54195">
        <ele>169.471066</ele>
        <time>2026-08-15T07:42:02.923Z</time>
      </trkpt>
      <trkpt lat="49.54031" lon="3.54195">
        <ele>168.741049</ele>
        <time>2026-08-15T07:42:06.922Z</time>
      </trkpt>
      <trkpt lat="49.54021" lon="3.54197">
        <ele>167.979625</ele>
        <time>2026-08-15T07:42:10.921Z</time>
      </trkpt>
      <trkpt lat="49.5401" lon="3.54197">
        <ele>167.190638</ele>
        <time>2026-08-15T07:42:14.928Z</time>
      </trkpt>
      <trkpt lat="49.54" lon="3.54197">
        <ele>166.409094</ele>
        <time>2026-08-15T07:42:18.918Z</time>
      </trkpt>
      <trkpt lat="49.53989" lon="3.54196">
        <ele>165.612531</ele>
        <time>2026-08-15T07:42:22.922Z</time>
      </trkpt>
      <trkpt lat="49.53979" lon="3.54198">
        <ele>164.880392</ele>
        <time>2026-08-15T07:42:26.923Z</time>
      </trkpt>
      <trkpt lat="49.5397" lon="3.54203">
        <ele>164.168293</ele>
        <time>2026-08-15T07:42:30.908Z</time>
      </trkpt>
      <trkpt lat="49.53961" lon="3.54211">
        <ele>163.394943</ele>
        <time>2026-08-15T07:42:34.930Z</time>
      </trkpt>
      <trkpt lat="49.53953" lon="3.54219">
        <ele>162.672204</ele>
        <time>2026-08-15T07:42:38.923Z</time>
      </trkpt>
      <trkpt lat="49.53946" lon="3.54229">
        <ele>161.940758</ele>
        <time>2026-08-15T07:42:42.900Z</time>
      </trkpt>
      <trkpt lat="49.53938" lon="3.54236">
        <ele>161.263038</ele>
        <time>2026-08-15T07:42:46.925Z</time>
      </trkpt>
      <trkpt lat="49.53927" lon="3.54236">
        <ele>160.44422</ele>
        <time>2026-08-15T07:42:51.919Z</time>
      </trkpt>
      <trkpt lat="49.53917" lon="3.54236">
        <ele>159.685005</ele>
        <time>2026-08-15T07:42:55.923Z</time>
      </trkpt>
      <trkpt lat="49.53906" lon="3.54235">
        <ele>159.024442</ele>
        <time>2026-08-15T07:43:00.920Z</time>
      </trkpt>
      <trkpt lat="49.53896" lon="3.54234">
        <ele>158.545601</ele>
        <time>2026-08-15T07:43:07.908Z</time>
      </trkpt>
      <trkpt lat="49.53885" lon="3.54234">
        <ele>158.024937</ele>
        <time>2026-08-15T07:43:12.903Z</time>
      </trkpt>
      <trkpt lat="49.53876" lon="3.54232">
        <ele>157.59472</ele>
        <time>2026-08-15T07:43:16.921Z</time>
      </trkpt>
      <trkpt lat="49.53867" lon="3.5423">
        <ele>157.145334</ele>
        <time>2026-08-15T07:43:20.918Z</time>
      </trkpt>
      <trkpt lat="49.53858" lon="3.54228">
        <ele>156.716335</ele>
        <time>2026-08-15T07:43:24.916Z</time>
      </trkpt>
      <trkpt lat="49.53847" lon="3.54228">
        <ele>156.205277</ele>
        <time>2026-08-15T07:43:29.922Z</time>
      </trkpt>
      <trkpt lat="49.53837" lon="3.54226">
        <ele>155.714106</ele>
        <time>2026-08-15T07:43:34.924Z</time>
      </trkpt>
      <trkpt lat="49.53826" lon="3.54222">
        <ele>155.19093</ele>
        <time>2026-08-15T07:43:39.922Z</time>
      </trkpt>
      <trkpt lat="49.53815" lon="3.54217">
        <ele>154.660108</ele>
        <time>2026-08-15T07:43:44.925Z</time>
      </trkpt>
      <trkpt lat="49.53805" lon="3.54213">
        <ele>154.134582</ele>
        <time>2026-08-15T07:43:49.920Z</time>
      </trkpt>
      <trkpt lat="49.53795" lon="3.54214">
        <ele>153.684265</ele>
        <time>2026-08-15T07:43:53.918Z</time>
      </trkpt>
      <trkpt lat="49.53786" lon="3.54219">
        <ele>153.218248</ele>
        <time>2026-08-15T07:43:57.919Z</time>
      </trkpt>
      <trkpt lat="49.53776" lon="3.54222">
        <ele>152.726364</ele>
        <time>2026-08-15T07:44:01.929Z</time>
      </trkpt>
      <trkpt lat="49.53765" lon="3.54222">
        <ele>152.220112</ele>
        <time>2026-08-15T07:44:05.920Z</time>
      </trkpt>
      <trkpt lat="49.53756" lon="3.54218">
        <ele>151.790874</ele>
        <time>2026-08-15T07:44:09.924Z</time>
      </trkpt>
      <trkpt lat="49.53747" lon="3.54217">
        <ele>151.347411</ele>
        <time>2026-08-15T07:44:16.895Z</time>
      </trkpt>
      <trkpt lat="49.53757" lon="3.54228">
        <ele>150.728723</ele>
        <time>2026-08-15T07:44:44.901Z</time>
      </trkpt>
      <trkpt lat="49.53764" lon="3.54239">
        <ele>150.006411</ele>
        <time>2026-08-15T07:44:54.908Z</time>
      </trkpt>
      <trkpt lat="49.53773" lon="3.54245">
        <ele>149.193939</ele>
        <time>2026-08-15T07:45:01.913Z</time>
      </trkpt>
      <trkpt lat="49.53782" lon="3.54252">
        <ele>148.400835</ele>
        <time>2026-08-15T07:45:08.907Z</time>
      </trkpt>
      <trkpt lat="49.53789" lon="3.54261">
        <ele>147.659202</ele>
        <time>2026-08-15T07:45:15.901Z</time>
      </trkpt>
      <trkpt lat="49.538" lon="3.54272">
        <ele>146.598775</ele>
        <time>2026-08-15T07:46:00.910Z</time>
      </trkpt>
      <trkpt lat="49.5381" lon="3.54277">
        <ele>145.735166</ele>
        <time>2026-08-15T07:46:05.912Z</time>
      </trkpt>
      <trkpt lat="49.53819" lon="3.54282">
        <ele>144.944435</ele>
        <time>2026-08-15T07:46:09.911Z</time>
      </trkpt>
      <trkpt lat="49.53828" lon="3.54291">
        <ele>144.079518</ele>
        <time>2026-08-15T07:46:14.919Z</time>
      </trkpt>
      <trkpt lat="49.53837" lon="3.54299">
        <ele>143.244542</ele>
        <time>2026-08-15T07:46:19.920Z</time>
      </trkpt>
      <trkpt lat="49.53846" lon="3.54308">
        <ele>142.388931</ele>
        <time>2026-08-15T07:46:24.926Z</time>
      </trkpt>
      <trkpt lat="49.53852" lon="3.54319">
        <ele>141.634399</ele>
        <time>2026-08-15T07:46:29.921Z</time>
      </trkpt>
      <trkpt lat="49.53848" lon="3.54332">
        <ele>140.879485</ele>
        <time>2026-08-15T07:46:35.906Z</time>
      </trkpt>
      <trkpt lat="49.53857" lon="3.54335">
        <ele>140.128383</ele>
        <time>2026-08-15T07:47:39.905Z</time>
      </trkpt>
      <trkpt lat="49.53866" lon="3.54339">
        <ele>139.384709</ele>
        <time>2026-08-15T07:47:58.915Z</time>
      </trkpt>
      <trkpt lat="49.53867" lon="3.54354">
        <ele>138.588707</ele>
        <time>2026-08-15T07:48:05.907Z</time>
      </trkpt>
      <trkpt lat="49.53866" lon="3.5437">
        <ele>137.779005</ele>
        <time>2026-08-15T07:48:11.903Z</time>
      </trkpt>
      <trkpt lat="49.53875" lon="3.54358">
        <ele>136.821189</ele>
        <time>2026-08-15T07:49:12.915Z</time>
      </trkpt>
      <trkpt lat="49.53884" lon="3.54352">
        <ele>136.050688</ele>
        <time>2026-08-15T07:49:19.904Z</time>
      </trkpt>
      <trkpt lat="49.53895" lon="3.54353">
        <ele>135.113638</ele>
        <time>2026-08-15T07:49:24.909Z</time>
      </trkpt>
      <trkpt lat="49.53905" lon="3.54353">
        <ele>134.245407</ele>
        <time>2026-08-15T07:49:29.905Z</time>
      </trkpt>
      <trkpt lat="49.53914" lon="3.54362">
        <ele>133.369794</ele>
        <time>2026-08-15T07:49:37.899Z</time>
      </trkpt>
      <trkpt lat="49.53922" lon="3.54369">
        <ele>132.588518</ele>
        <time>2026-08-15T07:49:43.908Z</time>
      </trkpt>
      <trkpt lat="49.53927" lon="3.54381">
        <ele>131.795022</ele>
        <time>2026-08-15T07:49:49.905Z</time>
      </trkpt>
      <trkpt lat="49.53937" lon="3.54389">
        <ele>130.808051</ele>
        <time>2026-08-15T07:49:54.910Z</time>
      </trkpt>
      <trkpt lat="49.53944" lon="3.544">
        <ele>129.968941</ele>
        <time>2026-08-15T07:49:59.919Z</time>
      </trkpt>
      <trkpt lat="49.53953" lon="3.54409">
        <ele>129.100433</ele>
        <time>2026-08-15T07:50:05.909Z</time>
      </trkpt>
      <trkpt lat="49.53963" lon="3.54412">
        <ele>128.179307</ele>
        <time>2026-08-15T07:50:10.911Z</time>
      </trkpt>
      <trkpt lat="49.53971" lon="3.54418">
        <ele>127.401683</ele>
        <time>2026-08-15T07:50:15.914Z</time>
      </trkpt>
      <trkpt lat="49.53976" lon="3.54431">
        <ele>126.620273</ele>
        <time>2026-08-15T07:50:19.914Z</time>
      </trkpt>
      <trkpt lat="49.53982" lon="3.54443">
        <ele>125.724811</ele>
        <time>2026-08-15T07:50:24.922Z</time>
      </trkpt>
      <trkpt lat="49.53988" lon="3.54455">
        <ele>124.904445</ele>
        <time>2026-08-15T07:50:30.920Z</time>
      </trkpt>
      <trkpt lat="49.53993" lon="3.54469">
        <ele>124.021824</ele>
        <time>2026-08-15T07:50:36.914Z</time>
      </trkpt>
      <trkpt lat="49.54004" lon="3.54476">
        <ele>123.078086</ele>
        <time>2026-08-15T07:50:41.902Z</time>
      </trkpt>
      <trkpt lat="49.54001" lon="3.5449">
        <ele>122.253275</ele>
        <time>2026-08-15T07:51:33.916Z</time>
      </trkpt>
      <trkpt lat="49.53991" lon="3.54494">
        <ele>121.43173</ele>
        <time>2026-08-15T07:51:38.909Z</time>
      </trkpt>
      <trkpt lat="49.53982" lon="3.54504">
        <ele>120.572466</ele>
        <time>2026-08-15T07:51:44.903Z</time>
      </trkpt>
      <trkpt lat="49.53974" lon="3.54512">
        <ele>119.971119</ele>
        <time>2026-08-15T07:51:48.916Z</time>
      </trkpt>
      <trkpt lat="49.53965" lon="3.54518">
        <ele>119.368833</ele>
        <time>2026-08-15T07:51:52.921Z</time>
      </trkpt>
      <trkpt lat="49.53953" lon="3.5452">
        <ele>118.673251</ele>
        <time>2026-08-15T07:51:56.921Z</time>
      </trkpt>
      <trkpt lat="49.53943" lon="3.54519">
        <ele>118.057403</ele>
        <time>2026-08-15T07:52:00.914Z</time>
      </trkpt>
      <trkpt lat="49.53934" lon="3.54524">
        <ele>117.476811</ele>
        <time>2026-08-15T07:52:04.918Z</time>
      </trkpt>
      <trkpt lat="49.53925" lon="3.54528">
        <ele>116.895268</ele>
        <time>2026-08-15T07:52:08.902Z</time>
      </trkpt>
      <trkpt lat="49.53917" lon="3.54535">
        <ele>116.30345</ele>
        <time>2026-08-15T07:52:12.920Z</time>
      </trkpt>
      <trkpt lat="49.53907" lon="3.5454">
        <ele>115.663726</ele>
        <time>2026-08-15T07:52:16.919Z</time>
      </trkpt>
      <trkpt lat="49.53896" lon="3.54543">
        <ele>115.023572</ele>
        <time>2026-08-15T07:52:20.917Z</time>
      </trkpt>
      <trkpt lat="49.53886" lon="3.54546">
        <ele>114.413753</ele>
        <time>2026-08-15T07:52:25.919Z</time>
      </trkpt>
      <trkpt lat="49.53877" lon="3.54544">
        <ele>113.856863</ele>
        <time>2026-08-15T07:52:33.913Z</time>
      </trkpt>
      <trkpt lat="49.53868" lon="3.54549">
        <ele>113.271863</ele>
        <time>2026-08-15T07:53:37.904Z</time>
      </trkpt>
      <trkpt lat="49.53859" lon="3.54554">
        <ele>112.678251</ele>
        <time>2026-08-15T07:53:43.908Z</time>
      </trkpt>
      <trkpt lat="49.53848" lon="3.54558">
        <ele>112.005973</ele>
        <time>2026-08-15T07:53:49.911Z</time>
      </trkpt>
      <trkpt lat="49.53839" lon="3.54564">
        <ele>111.38272</ele>
        <time>2026-08-15T07:53:54.911Z</time>
      </trkpt>
      <trkpt lat="49.5383" lon="3.54568">
        <ele>110.830268</ele>
        <time>2026-08-15T07:53:58.906Z</time>
      </trkpt>
      <trkpt lat="49.53821" lon="3.54574">
        <ele>110.250929</ele>
        <time>2026-08-15T07:54:02.923Z</time>
      </trkpt>
      <trkpt lat="49.53813" lon="3.54582">
        <ele>109.63024</ele>
        <time>2026-08-15T07:54:06.923Z</time>
      </trkpt>
      <trkpt lat="49.53813" lon="3.54597">
        <ele>108.985058</ele>
        <time>2026-08-15T07:54:14.913Z</time>
      </trkpt>
      <trkpt lat="49.53818" lon="3.54617">
        <ele>108.060532</ele>
        <time>2026-08-15T07:55:43.905Z</time>
      </trkpt>
      <trkpt lat="49.53823" lon="3.54631">
        <ele>107.389697</ele>
        <time>2026-08-15T07:55:47.919Z</time>
      </trkpt>
      <trkpt lat="49.53829" lon="3.54645">
        <ele>106.709358</ele>
        <time>2026-08-15T07:55:51.925Z</time>
      </trkpt>
      <trkpt lat="49.53834" lon="3.54658">
        <ele>106.047123</ele>
        <time>2026-08-15T07:55:55.925Z</time>
      </trkpt>
      <trkpt lat="49.5384" lon="3.54671">
        <ele>105.388447</ele>
        <time>2026-08-15T07:55:59.923Z</time>
      </trkpt>
      <trkpt lat="49.53845" lon="3.54685">
        <ele>104.697564</ele>
        <time>2026-08-15T07:56:03.956Z</time>
      </trkpt>
      <trkpt lat="49.53849" lon="3.54701">
        <ele>103.97428</ele>
        <time>2026-08-15T07:56:07.917Z</time>
      </trkpt>
      <trkpt lat="49.53851" lon="3.54719">
        <ele>103.188517</ele>
        <time>2026-08-15T07:56:11.912Z</time>
      </trkpt>
      <trkpt lat="49.53852" lon="3.54738">
        <ele>102.407158</ele>
        <time>2026-08-15T07:56:15.921Z</time>
      </trkpt>
      <trkpt lat="49.53854" lon="3.54753">
        <ele>101.736187</ele>
        <time>2026-08-15T07:56:19.920Z</time>
      </trkpt>
      <trkpt lat="49.53851" lon="3.54768">
        <ele>101.091751</ele>
        <time>2026-08-15T07:56:24.920Z</time>
      </trkpt>
      <trkpt lat="49.53849" lon="3.54784">
        <ele>100.411378</ele>
        <time>2026-08-15T07:56:33.919Z</time>
      </trkpt>
      <trkpt lat="49.53848" lon="3.54798">
        <ele>99.788258</ele>
        <time>2026-08-15T07:56:40.903Z</time>
      </trkpt>
      <trkpt lat="49.53848" lon="3.54815">
        <ele>99.079448</ele>
        <time>2026-08-15T07:56:45.905Z</time>
      </trkpt>
      <trkpt lat="49.53848" lon="3.5483">
        <ele>98.455526</ele>
        <time>2026-08-15T07:56:49.908Z</time>
      </trkpt>
      <trkpt lat="49.53849" lon="3.54847">
        <ele>97.953899</ele>
        <time>2026-08-15T07:56:54.913Z</time>
      </trkpt>
      <trkpt lat="49.5385" lon="3.54862">
        <ele>97.723034</ele>
        <time>2026-08-15T07:56:58.910Z</time>
      </trkpt>
      <trkpt lat="49.53851" lon="3.54877">
        <ele>97.500743</ele>
        <time>2026-08-15T07:57:02.916Z</time>
      </trkpt>
      <trkpt lat="49.53852" lon="3.54892">
        <ele>97.265035</ele>
        <time>2026-08-15T07:57:08.918Z</time>
      </trkpt>
      <trkpt lat="49.53852" lon="3.54907">
        <ele>97.040179</ele>
        <time>2026-08-15T07:57:15.908Z</time>
      </trkpt>
      <trkpt lat="49.53852" lon="3.54922">
        <ele>96.801698</ele>
        <time>2026-08-15T07:57:20.925Z</time>
      </trkpt>
      <trkpt lat="49.53853" lon="3.54938">
        <ele>96.566034</ele>
        <time>2026-08-15T07:57:24.921Z</time>
      </trkpt>
      <trkpt lat="49.53853" lon="3.54954">
        <ele>96.313892</ele>
        <time>2026-08-15T07:57:28.919Z</time>
      </trkpt>
      <trkpt lat="49.53853" lon="3.54972">
        <ele>96.049629</ele>
        <time>2026-08-15T07:57:33.922Z</time>
      </trkpt>
      <trkpt lat="49.53852" lon="3.54988">
        <ele>95.793999</ele>
        <time>2026-08-15T07:57:38.922Z</time>
      </trkpt>
      <trkpt lat="49.5385" lon="3.55004">
        <ele>95.554254</ele>
        <time>2026-08-15T07:57:43.919Z</time>
      </trkpt>
      <trkpt lat="49.53845" lon="3.55022">
        <ele>95.242995</ele>
        <time>2026-08-15T07:58:40.907Z</time>
      </trkpt>
      <trkpt lat="49.53842" lon="3.55037">
        <ele>95.007307</ele>
        <time>2026-08-15T07:58:46.916Z</time>
      </trkpt>
      <trkpt lat="49.53839" lon="3.55052">
        <ele>94.771799</ele>
        <time>2026-08-15T07:58:50.920Z</time>
      </trkpt>
      <trkpt lat="49.53836" lon="3.55065">
        <ele>94.560236</ele>
        <time>2026-08-15T07:58:54.929Z</time>
      </trkpt>
      <trkpt lat="49.53833" lon="3.5508">
        <ele>94.319228</ele>
        <time>2026-08-15T07:58:58.925Z</time>
      </trkpt>
      <trkpt lat="49.53829" lon="3.55093">
        <ele>94.104605</ele>
        <time>2026-08-15T07:59:02.921Z</time>
      </trkpt>
      <trkpt lat="49.53822" lon="3.55104">
        <ele>93.862638</ele>
        <time>2026-08-15T07:59:06.926Z</time>
      </trkpt>
      <trkpt lat="49.53818" lon="3.5512">
        <ele>94.291079</ele>
        <time>2026-08-15T07:59:11.928Z</time>
      </trkpt>
      <trkpt lat="49.53812" lon="3.55131">
        <ele>94.65458</ele>
        <time>2026-08-15T07:59:18.923Z</time>
      </trkpt>
      <trkpt lat="49.53802" lon="3.55108">
        <ele>95.372304</ele>
        <time>2026-08-15T08:00:00.910Z</time>
      </trkpt>
      <trkpt lat="49.53797" lon="3.55096">
        <ele>95.760255</ele>
        <time>2026-08-15T08:00:04.919Z</time>
      </trkpt>
      <trkpt lat="49.53789" lon="3.55084">
        <ele>96.196884</ele>
        <time>2026-08-15T08:00:09.920Z</time>
      </trkpt>
      <trkpt lat="49.53784" lon="3.55071">
        <ele>96.593659</ele>
        <time>2026-08-15T08:00:13.926Z</time>
      </trkpt>
      <trkpt lat="49.53779" lon="3.55059">
        <ele>96.959914</ele>
        <time>2026-08-15T08:00:17.928Z</time>
      </trkpt>
      <trkpt lat="49.53774" lon="3.55044">
        <ele>97.396289</ele>
        <time>2026-08-15T08:00:22.927Z</time>
      </trkpt>
      <trkpt lat="49.53771" lon="3.5503">
        <ele>97.770783</ele>
        <time>2026-08-15T08:00:26.924Z</time>
      </trkpt>
      <trkpt lat="49.53769" lon="3.55016">
        <ele>98.14349</ele>
        <time>2026-08-15T08:00:30.924Z</time>
      </trkpt>
      <trkpt lat="49.53765" lon="3.55003">
        <ele>98.50474</ele>
        <time>2026-08-15T08:00:34.925Z</time>
      </trkpt>
      <trkpt lat="49.53762" lon="3.5499">
        <ele>98.87681</ele>
        <time>2026-08-15T08:00:38.924Z</time>
      </trkpt>
      <trkpt lat="49.53759" lon="3.54975">
        <ele>99.279835</ele>
        <time>2026-08-15T08:00:42.922Z</time>
      </trkpt>
      <trkpt lat="49.53756" lon="3.54962">
        <ele>99.656809</ele>
        <time>2026-08-15T08:00:46.917Z</time>
      </trkpt>
      <trkpt lat="49.53753" lon="3.54947">
        <ele>100.05474</ele>
        <time>2026-08-15T08:00:50.925Z</time>
      </trkpt>
      <trkpt lat="49.5375" lon="3.54933">
        <ele>100.424501</ele>
        <time>2026-08-15T08:00:54.919Z</time>
      </trkpt>
      <trkpt lat="49.53748" lon="3.5492">
        <ele>100.789263</ele>
        <time>2026-08-15T08:00:58.920Z</time>
      </trkpt>
      <trkpt lat="49.53743" lon="3.54907">
        <ele>101.102682</ele>
        <time>2026-08-15T08:01:04.917Z</time>
      </trkpt>
      <trkpt lat="49.53738" lon="3.54893">
        <ele>101.244006</ele>
        <time>2026-08-15T08:01:09.919Z</time>
      </trkpt>
      <trkpt lat="49.53735" lon="3.54878">
        <ele>101.394678</ele>
        <time>2026-08-15T08:01:14.924Z</time>
      </trkpt>
      <trkpt lat="49.53732" lon="3.54861">
        <ele>101.554036</ele>
        <time>2026-08-15T08:01:19.926Z</time>
      </trkpt>
      <trkpt lat="49.53731" lon="3.54847">
        <ele>101.687574</ele>
        <time>2026-08-15T08:01:23.918Z</time>
      </trkpt>
      <trkpt lat="49.5373" lon="3.54833">
        <ele>101.820927</ele>
        <time>2026-08-15T08:01:27.921Z</time>
      </trkpt>
      <trkpt lat="49.53729" lon="3.54818">
        <ele>101.96112</ele>
        <time>2026-08-15T08:01:32.921Z</time>
      </trkpt>
      <trkpt lat="49.53728" lon="3.54802">
        <ele>102.11187</ele>
        <time>2026-08-15T08:01:37.921Z</time>
      </trkpt>
      <trkpt lat="49.53724" lon="3.54787">
        <ele>102.258585</ele>
        <time>2026-08-15T08:01:42.918Z</time>
      </trkpt>
      <trkpt lat="49.53722" lon="3.54773">
        <ele>102.39542</ele>
        <time>2026-08-15T08:01:49.910Z</time>
      </trkpt>
      <trkpt lat="49.53723" lon="3.54758">
        <ele>102.538476</ele>
        <time>2026-08-15T08:01:57.911Z</time>
      </trkpt>
      <trkpt lat="49.53722" lon="3.54743">
        <ele>102.67875</ele>
        <time>2026-08-15T08:02:05.906Z</time>
      </trkpt>
      <trkpt lat="49.53722" lon="3.54727">
        <ele>102.823148</ele>
        <time>2026-08-15T08:02:14.903Z</time>
      </trkpt>
      <trkpt lat="49.53719" lon="3.54713">
        <ele>102.962146</ele>
        <time>2026-08-15T08:02:22.900Z</time>
      </trkpt>
      <trkpt lat="49.53719" lon="3.54698">
        <ele>103.097176</ele>
        <time>2026-08-15T08:02:33.913Z</time>
      </trkpt>
      <trkpt lat="49.53718" lon="3.54683">
        <ele>103.235973</ele>
        <time>2026-08-15T08:02:42.904Z</time>
      </trkpt>
      <trkpt lat="49.53708" lon="3.54685">
        <ele>103.378714</ele>
        <time>2026-08-15T08:02:48.902Z</time>
      </trkpt>
      <trkpt lat="49.53698" lon="3.54686">
        <ele>103.527168</ele>
        <time>2026-08-15T08:02:53.904Z</time>
      </trkpt>
      <trkpt lat="49.53687" lon="3.54681">
        <ele>103.490292</ele>
        <time>2026-08-15T08:02:58.922Z</time>
      </trkpt>
      <trkpt lat="49.53679" lon="3.54676">
        <ele>103.052753</ele>
        <time>2026-08-15T08:03:03.909Z</time>
      </trkpt>
      <trkpt lat="49.5367" lon="3.54677">
        <ele>102.611927</ele>
        <time>2026-08-15T08:03:08.899Z</time>
      </trkpt>
      <trkpt lat="49.5366" lon="3.54684">
        <ele>102.108492</ele>
        <time>2026-08-15T08:03:14.924Z</time>
      </trkpt>
      <trkpt lat="49.53653" lon="3.54693">
        <ele>101.660766</ele>
        <time>2026-08-15T08:03:20.916Z</time>
      </trkpt>
      <trkpt lat="49.53653" lon="3.54707">
        <ele>101.211127</ele>
        <time>2026-08-15T08:03:25.909Z</time>
      </trkpt>
      <trkpt lat="49.53651" lon="3.54724">
        <ele>100.6924</ele>
        <time>2026-08-15T08:03:30.903Z</time>
      </trkpt>
      <trkpt lat="49.53649" lon="3.54738">
        <ele>100.246522</ele>
        <time>2026-08-15T08:03:34.922Z</time>
      </trkpt>
      <trkpt lat="49.53648" lon="3.54752">
        <ele>99.791445</ele>
        <time>2026-08-15T08:03:38.921Z</time>
      </trkpt>
      <trkpt lat="49.53648" lon="3.54767">
        <ele>99.338814</ele>
        <time>2026-08-15T08:03:42.923Z</time>
      </trkpt>
      <trkpt lat="49.53649" lon="3.54783">
        <ele>98.82938</ele>
        <time>2026-08-15T08:03:47.921Z</time>
      </trkpt>
      <trkpt lat="49.53652" lon="3.54797">
        <ele>98.361154</ele>
        <time>2026-08-15T08:03:51.922Z</time>
      </trkpt>
      <trkpt lat="49.53657" lon="3.54809">
        <ele>97.915623</ele>
        <time>2026-08-15T08:03:55.930Z</time>
      </trkpt>
      <trkpt lat="49.53659" lon="3.54823">
        <ele>97.461097</ele>
        <time>2026-08-15T08:03:59.921Z</time>
      </trkpt>
      <trkpt lat="49.53661" lon="3.54837">
        <ele>97.02083</ele>
        <time>2026-08-15T08:04:03.922Z</time>
      </trkpt>
      <trkpt lat="49.53664" lon="3.54851">
        <ele>96.566611</ele>
        <time>2026-08-15T08:04:07.925Z</time>
      </trkpt>
      <trkpt lat="49.53666" lon="3.54866">
        <ele>96.088701</ele>
        <time>2026-08-15T08:04:11.924Z</time>
      </trkpt>
      <trkpt lat="49.53668" lon="3.54881">
        <ele>95.618771</ele>
        <time>2026-08-15T08:04:15.923Z</time>
      </trkpt>
      <trkpt lat="49.53668" lon="3.54896">
        <ele>95.150023</ele>
        <time>2026-08-15T08:04:19.918Z</time>
      </trkpt>
      <trkpt lat="49.5367" lon="3.5491">
        <ele>94.594343</ele>
        <time>2026-08-15T08:04:23.927Z</time>
      </trkpt>
      <trkpt lat="49.53673" lon="3.54926">
        <ele>93.945757</ele>
        <time>2026-08-15T08:04:27.920Z</time>
      </trkpt>
      <trkpt lat="49.53676" lon="3.54942">
        <ele>93.297171</ele>
        <time>2026-08-15T08:04:31.922Z</time>
      </trkpt>
      <trkpt lat="49.53681" lon="3.54958">
        <ele>92.609524</ele>
        <time>2026-08-15T08:04:35.922Z</time>
      </trkpt>
      <trkpt lat="49.53681" lon="3.54976">
        <ele>91.878716</ele>
        <time>2026-08-15T08:04:39.923Z</time>
      </trkpt>
      <trkpt lat="49.5368" lon="3.54991">
        <ele>91.296246</ele>
        <time>2026-08-15T08:04:43.922Z</time>
      </trkpt>
      <trkpt lat="49.53682" lon="3.55005">
        <ele>90.734543</ele>
        <time>2026-08-15T08:04:47.921Z</time>
      </trkpt>
      <trkpt lat="49.53683" lon="3.5502">
        <ele>90.135367</ele>
        <time>2026-08-15T08:04:51.913Z</time>
      </trkpt>
      <trkpt lat="49.53685" lon="3.55037">
        <ele>89.440315</ele>
        <time>2026-08-15T08:04:56.919Z</time>
      </trkpt>
      <trkpt lat="49.53691" lon="3.55052">
        <ele>88.766384</ele>
        <time>2026-08-15T08:05:00.902Z</time>
      </trkpt>
      <trkpt lat="49.53696" lon="3.55066">
        <ele>88.114785</ele>
        <time>2026-08-15T08:05:04.916Z</time>
      </trkpt>
      <trkpt lat="49.537" lon="3.5508">
        <ele>87.502423</ele>
        <time>2026-08-15T08:05:08.921Z</time>
      </trkpt>
      <trkpt lat="49.53704" lon="3.55094">
        <ele>86.914309</ele>
        <time>2026-08-15T08:05:12.926Z</time>
      </trkpt>
      <trkpt lat="49.53708" lon="3.55106">
        <ele>86.346643</ele>
        <time>2026-08-15T08:05:16.921Z</time>
      </trkpt>
      <trkpt lat="49.53714" lon="3.55119">
        <ele>85.748201</ele>
        <time>2026-08-15T08:05:20.926Z</time>
      </trkpt>
      <trkpt lat="49.53718" lon="3.55133">
        <ele>85.141089</ele>
        <time>2026-08-15T08:05:25.917Z</time>
      </trkpt>
      <trkpt lat="49.53724" lon="3.55144">
        <ele>84.580789</ele>
        <time>2026-08-15T08:05:31.908Z</time>
      </trkpt>
      <trkpt lat="49.53729" lon="3.55155">
        <ele>84.025342</ele>
        <time>2026-08-15T08:05:38.919Z</time>
      </trkpt>
      <trkpt lat="49.5372" lon="3.55162">
        <ele>84.109274</ele>
        <time>2026-08-15T08:05:43.922Z</time>
      </trkpt>
      <trkpt lat="49.53712" lon="3.55169">
        <ele>84.206939</ele>
        <time>2026-08-15T08:05:47.922Z</time>
      </trkpt>
      <trkpt lat="49.53701" lon="3.55175">
        <ele>84.325138</ele>
        <time>2026-08-15T08:05:52.926Z</time>
      </trkpt>
      <trkpt lat="49.53694" lon="3.55184">
        <ele>84.420335</ele>
        <time>2026-08-15T08:05:56.924Z</time>
      </trkpt>
      <trkpt lat="49.53687" lon="3.55195">
        <ele>84.523034</ele>
        <time>2026-08-15T08:06:01.919Z</time>
      </trkpt>
      <trkpt lat="49.53678" lon="3.552">
        <ele>84.622938</ele>
        <time>2026-08-15T08:06:05.921Z</time>
      </trkpt>
      <trkpt lat="49.5367" lon="3.55208">
        <ele>84.728238</ele>
        <time>2026-08-15T08:06:09.921Z</time>
      </trkpt>
      <trkpt lat="49.53661" lon="3.55217">
        <ele>84.836665</ele>
        <time>2026-08-15T08:06:13.920Z</time>
      </trkpt>
      <trkpt lat="49.53652" lon="3.55224">
        <ele>84.943054</ele>
        <time>2026-08-15T08:06:17.918Z</time>
      </trkpt>
      <trkpt lat="49.53644" lon="3.5523">
        <ele>85.038244</ele>
        <time>2026-08-15T08:06:21.930Z</time>
      </trkpt>
      <trkpt lat="49.53636" lon="3.55236">
        <ele>85.135485</ele>
        <time>2026-08-15T08:06:26.921Z</time>
      </trkpt>
      <trkpt lat="49.53628" lon="3.55246">
        <ele>85.237329</ele>
        <time>2026-08-15T08:06:33.904Z</time>
      </trkpt>
      <trkpt lat="49.53623" lon="3.55233">
        <ele>85.339033</ele>
        <time>2026-08-15T08:06:46.911Z</time>
      </trkpt>
      <trkpt lat="49.53621" lon="3.55218">
        <ele>85.443036</ele>
        <time>2026-08-15T08:06:51.905Z</time>
      </trkpt>
      <trkpt lat="49.53617" lon="3.55205">
        <ele>85.541242</ele>
        <time>2026-08-15T08:06:55.908Z</time>
      </trkpt>
      <trkpt lat="49.53614" lon="3.55191">
        <ele>85.637096</ele>
        <time>2026-08-15T08:06:59.909Z</time>
      </trkpt>
      <trkpt lat="49.53609" lon="3.55177">
        <ele>85.750905</ele>
        <time>2026-08-15T08:07:04.909Z</time>
      </trkpt>
      <trkpt lat="49.53603" lon="3.55165">
        <ele>85.848155</ele>
        <time>2026-08-15T08:07:08.917Z</time>
      </trkpt>
      <trkpt lat="49.53597" lon="3.55152">
        <ele>86.01398</ele>
        <time>2026-08-15T08:07:13.923Z</time>
      </trkpt>
      <trkpt lat="49.53592" lon="3.55139">
        <ele>86.189755</ele>
        <time>2026-08-15T08:07:18.916Z</time>
      </trkpt>
      <trkpt lat="49.53584" lon="3.55127">
        <ele>86.378321</ele>
        <time>2026-08-15T08:07:23.920Z</time>
      </trkpt>
      <trkpt lat="49.53578" lon="3.55113">
        <ele>86.573398</ele>
        <time>2026-08-15T08:07:28.923Z</time>
      </trkpt>
      <trkpt lat="49.53571" lon="3.55102">
        <ele>86.745461</ele>
        <time>2026-08-15T08:07:32.924Z</time>
      </trkpt>
      <trkpt lat="49.53564" lon="3.55089">
        <ele>86.949588</ele>
        <time>2026-08-15T08:07:36.923Z</time>
      </trkpt>
      <trkpt lat="49.53557" lon="3.55075">
        <ele>87.153483</ele>
        <time>2026-08-15T08:07:40.923Z</time>
      </trkpt>
      <trkpt lat="49.53551" lon="3.55062">
        <ele>87.343742</ele>
        <time>2026-08-15T08:07:44.921Z</time>
      </trkpt>
      <trkpt lat="49.53545" lon="3.55049">
        <ele>87.520645</ele>
        <time>2026-08-15T08:07:48.923Z</time>
      </trkpt>
      <trkpt lat="49.5354" lon="3.55037">
        <ele>87.690446</ele>
        <time>2026-08-15T08:07:52.918Z</time>
      </trkpt>
      <trkpt lat="49.53534" lon="3.55022">
        <ele>87.894767</ele>
        <time>2026-08-15T08:07:57.922Z</time>
      </trkpt>
      <trkpt lat="49.5353" lon="3.55007">
        <ele>88.075257</ele>
        <time>2026-08-15T08:08:01.923Z</time>
      </trkpt>
      <trkpt lat="49.53529" lon="3.54993">
        <ele>88.245059</ele>
        <time>2026-08-15T08:08:05.920Z</time>
      </trkpt>
      <trkpt lat="49.53529" lon="3.54978">
        <ele>88.420944</ele>
        <time>2026-08-15T08:08:09.922Z</time>
      </trkpt>
      <trkpt lat="49.53531" lon="3.54962">
        <ele>88.607131</ele>
        <time>2026-08-15T08:08:13.923Z</time>
      </trkpt>
      <trkpt lat="49.53532" lon="3.54946">
        <ele>88.793807</ele>
        <time>2026-08-15T08:08:17.924Z</time>
      </trkpt>
      <trkpt lat="49.53528" lon="3.54933">
        <ele>88.962179</ele>
        <time>2026-08-15T08:08:22.921Z</time>
      </trkpt>
      <trkpt lat="49.53517" lon="3.54938">
        <ele>89.184873</ele>
        <time>2026-08-15T08:08:26.920Z</time>
      </trkpt>
      <trkpt lat="49.53507" lon="3.54945">
        <ele>89.444949</ele>
        <time>2026-08-15T08:08:30.923Z</time>
      </trkpt>
      <trkpt lat="49.53497" lon="3.54946">
        <ele>89.676064</ele>
        <time>2026-08-15T08:08:34.923Z</time>
      </trkpt>
      <trkpt lat="49.53487" lon="3.5495">
        <ele>89.925779</ele>
        <time>2026-08-15T08:08:38.922Z</time>
      </trkpt>
      <trkpt lat="49.53477" lon="3.54953">
        <ele>90.158364</ele>
        <time>2026-08-15T08:08:42.919Z</time>
      </trkpt>
      <trkpt lat="49.53468" lon="3.54952">
        <ele>90.374911</ele>
        <time>2026-08-15T08:08:46.926Z</time>
      </trkpt>
      <trkpt lat="49.53459" lon="3.5495">
        <ele>90.597679</ele>
        <time>2026-08-15T08:08:50.908Z</time>
      </trkpt>
      <trkpt lat="49.5345" lon="3.54943">
        <ele>90.829443</ele>
        <time>2026-08-15T08:08:54.931Z</time>
      </trkpt>
      <trkpt lat="49.53441" lon="3.54938">
        <ele>91.057057</ele>
        <time>2026-08-15T08:08:58.921Z</time>
      </trkpt>
      <trkpt lat="49.5343" lon="3.54931">
        <ele>91.321707</ele>
        <time>2026-08-15T08:09:03.919Z</time>
      </trkpt>
      <trkpt lat="49.53421" lon="3.54921">
        <ele>91.583456</ele>
        <time>2026-08-15T08:09:08.921Z</time>
      </trkpt>
      <trkpt lat="49.53413" lon="3.54914">
        <ele>91.79955</ele>
        <time>2026-08-15T08:09:12.918Z</time>
      </trkpt>
      <trkpt lat="49.53404" lon="3.54908">
        <ele>92.037486</ele>
        <time>2026-08-15T08:09:17.921Z</time>
      </trkpt>
      <trkpt lat="49.53394" lon="3.54905">
        <ele>92.266632</ele>
        <time>2026-08-15T08:09:25.923Z</time>
      </trkpt>
      <trkpt lat="49.53385" lon="3.549">
        <ele>92.500414</ele>
        <time>2026-08-15T08:09:34.913Z</time>
      </trkpt>
      <trkpt lat="49.53377" lon="3.5489">
        <ele>92.738642</ele>
        <time>2026-08-15T08:09:43.903Z</time>
      </trkpt>
      <trkpt lat="49.53373" lon="3.54878">
        <ele>92.95046</ele>
        <time>2026-08-15T08:09:49.910Z</time>
      </trkpt>
      <trkpt lat="49.53367" lon="3.54867">
        <ele>93.16163</ele>
        <time>2026-08-15T08:09:55.904Z</time>
      </trkpt>
      <trkpt lat="49.53364" lon="3.54853">
        <ele>93.622901</ele>
        <time>2026-08-15T08:10:03.903Z</time>
      </trkpt>
      <trkpt lat="49.5336" lon="3.54838">
        <ele>94.692749</ele>
        <time>2026-08-15T08:10:08.902Z</time>
      </trkpt>
      <trkpt lat="49.53356" lon="3.54825">
        <ele>95.634155</ele>
        <time>2026-08-15T08:10:12.904Z</time>
      </trkpt>
      <trkpt lat="49.53353" lon="3.54811">
        <ele>96.554697</ele>
        <time>2026-08-15T08:10:16.902Z</time>
      </trkpt>
      <trkpt lat="49.5335" lon="3.54795">
        <ele>97.659411</ele>
        <time>2026-08-15T08:10:21.901Z</time>
      </trkpt>
      <trkpt lat="49.53347" lon="3.54781">
        <ele>98.626696</ele>
        <time>2026-08-15T08:10:25.919Z</time>
      </trkpt>
      <trkpt lat="49.53344" lon="3.54765">
        <ele>99.734785</ele>
        <time>2026-08-15T08:10:29.927Z</time>
      </trkpt>
      <trkpt lat="49.53342" lon="3.5475">
        <ele>100.720877</ele>
        <time>2026-08-15T08:10:33.919Z</time>
      </trkpt>
      <trkpt lat="49.53338" lon="3.54737">
        <ele>101.71658</ele>
        <time>2026-08-15T08:10:37.925Z</time>
      </trkpt>
      <trkpt lat="49.53334" lon="3.54723">
        <ele>102.663032</ele>
        <time>2026-08-15T08:10:41.923Z</time>
      </trkpt>
      <trkpt lat="49.53329" lon="3.54711">
        <ele>103.59862</ele>
        <time>2026-08-15T08:10:45.919Z</time>
      </trkpt>
      <trkpt lat="49.53323" lon="3.54702">
        <ele>104.513372</ele>
        <time>2026-08-15T08:10:49.922Z</time>
      </trkpt>
      <trkpt lat="49.53316" lon="3.54692">
        <ele>105.456358</ele>
        <time>2026-08-15T08:10:53.923Z</time>
      </trkpt>
      <trkpt lat="49.53309" lon="3.54683">
        <ele>106.414611</ele>
        <time>2026-08-15T08:11:00.929Z</time>
      </trkpt>
      <trkpt lat="49.53307" lon="3.54668">
        <ele>107.407476</ele>
        <time>2026-08-15T08:11:07.913Z</time>
      </trkpt>
      <trkpt lat="49.53308" lon="3.54652">
        <ele>108.405188</ele>
        <time>2026-08-15T08:11:14.901Z</time>
      </trkpt>
      <trkpt lat="49.53307" lon="3.54637">
        <ele>109.425333</ele>
        <time>2026-08-15T08:11:22.901Z</time>
      </trkpt>
      <trkpt lat="49.53299" lon="3.54628">
        <ele>110.366521</ele>
        <time>2026-08-15T08:11:32.902Z</time>
      </trkpt>
      <trkpt lat="49.53291" lon="3.54635">
        <ele>111.328816</ele>
        <time>2026-08-15T08:11:40.904Z</time>
      </trkpt>
      <trkpt lat="49.53283" lon="3.54643">
        <ele>111.564584</ele>
        <time>2026-08-15T08:11:47.905Z</time>
      </trkpt>
      <trkpt lat="49.53277" lon="3.54655">
        <ele>111.643713</ele>
        <time>2026-08-15T08:11:53.911Z</time>
      </trkpt>
      <trkpt lat="49.53273" lon="3.54669">
        <ele>111.717385</ele>
        <time>2026-08-15T08:11:58.908Z</time>
      </trkpt>
      <trkpt lat="49.53268" lon="3.54682">
        <ele>111.792016</ele>
        <time>2026-08-15T08:12:03.902Z</time>
      </trkpt>
      <trkpt lat="49.53262" lon="3.54693">
        <ele>111.861344</ele>
        <time>2026-08-15T08:12:07.909Z</time>
      </trkpt>
      <trkpt lat="49.53254" lon="3.54703">
        <ele>111.941936</ele>
        <time>2026-08-15T08:12:11.919Z</time>
      </trkpt>
      <trkpt lat="49.53245" lon="3.54711">
        <ele>112.023234</ele>
        <time>2026-08-15T08:12:15.921Z</time>
      </trkpt>
      <trkpt lat="49.53237" lon="3.54722">
        <ele>112.103471</ele>
        <time>2026-08-15T08:12:20.902Z</time>
      </trkpt>
      <trkpt lat="49.53237" lon="3.5474">
        <ele>112.189851</ele>
        <time>2026-08-15T08:12:25.917Z</time>
      </trkpt>
      <trkpt lat="49.5323" lon="3.54752">
        <ele>112.27032</ele>
        <time>2026-08-15T08:12:30.907Z</time>
      </trkpt>
      <trkpt lat="49.53224" lon="3.54761">
        <ele>112.339067</ele>
        <time>2026-08-15T08:12:38.914Z</time>
      </trkpt>
      <trkpt lat="49.53214" lon="3.54766">
        <ele>112.416018</ele>
        <time>2026-08-15T08:12:45.902Z</time>
      </trkpt>
      <trkpt lat="49.53205" lon="3.54772">
        <ele>112.489183</ele>
        <time>2026-08-15T08:12:50.903Z</time>
      </trkpt>
      <trkpt lat="49.53197" lon="3.54777">
        <ele>112.561099</ele>
        <time>2026-08-15T08:12:54.904Z</time>
      </trkpt>
      <trkpt lat="49.53188" lon="3.54782">
        <ele>112.631618</ele>
        <time>2026-08-15T08:12:57.907Z</time>
      </trkpt>
      <trkpt lat="49.53178" lon="3.54786">
        <ele>112.707938</ele>
        <time>2026-08-15T08:13:00.921Z</time>
      </trkpt>
      <trkpt lat="49.5317" lon="3.54791">
        <ele>112.779343</ele>
        <time>2026-08-15T08:13:03.920Z</time>
      </trkpt>
      <trkpt lat="49.53158" lon="3.54795">
        <ele>112.86696</ele>
        <time>2026-08-15T08:13:07.921Z</time>
      </trkpt>
      <trkpt lat="49.53147" lon="3.54794">
        <ele>112.217722</ele>
        <time>2026-08-15T08:13:11.918Z</time>
      </trkpt>
      <trkpt lat="49.53138" lon="3.54798">
        <ele>111.506944</ele>
        <time>2026-08-15T08:13:14.909Z</time>
      </trkpt>
      <trkpt lat="49.53131" lon="3.54808">
        <ele>110.807956</ele>
        <time>2026-08-15T08:13:18.919Z</time>
      </trkpt>
      <trkpt lat="49.53132" lon="3.54824">
        <ele>110.018333</ele>
        <time>2026-08-15T08:13:22.917Z</time>
      </trkpt>
      <trkpt lat="49.53136" lon="3.5484">
        <ele>109.201101</ele>
        <time>2026-08-15T08:13:26.925Z</time>
      </trkpt>
      <trkpt lat="49.53141" lon="3.54854">
        <ele>108.417908</ele>
        <time>2026-08-15T08:13:30.918Z</time>
      </trkpt>
      <trkpt lat="49.53147" lon="3.54869">
        <ele>107.589221</ele>
        <time>2026-08-15T08:13:34.922Z</time>
      </trkpt>
      <trkpt lat="49.53153" lon="3.54881">
        <ele>106.851622</ele>
        <time>2026-08-15T08:13:37.924Z</time>
      </trkpt>
      <trkpt lat="49.5316" lon="3.54894">
        <ele>106.0049</ele>
        <time>2026-08-15T08:13:41.929Z</time>
      </trkpt>
      <trkpt lat="49.53167" lon="3.54909">
        <ele>105.118959</ele>
        <time>2026-08-15T08:13:45.920Z</time>
      </trkpt>
      <trkpt lat="49.53172" lon="3.54922">
        <ele>104.434901</ele>
        <time>2026-08-15T08:13:48.915Z</time>
      </trkpt>
      <trkpt lat="49.53174" lon="3.54939">
        <ele>103.569161</ele>
        <time>2026-08-15T08:13:52.910Z</time>
      </trkpt>
      <trkpt lat="49.53175" lon="3.54954">
        <ele>102.860012</ele>
        <time>2026-08-15T08:13:55.915Z</time>
      </trkpt>
      <trkpt lat="49.53177" lon="3.54968">
        <ele>102.178122</ele>
        <time>2026-08-15T08:13:58.921Z</time>
      </trkpt>
      <trkpt lat="49.53178" lon="3.54985">
        <ele>101.319879</ele>
        <time>2026-08-15T08:14:02.921Z</time>
      </trkpt>
      <trkpt lat="49.53183" lon="3.55">
        <ele>100.528675</ele>
        <time>2026-08-15T08:14:06.921Z</time>
      </trkpt>
      <trkpt lat="49.53188" lon="3.55012">
        <ele>99.828159</ele>
        <time>2026-08-15T08:14:10.918Z</time>
      </trkpt>
      <trkpt lat="49.53195" lon="3.55021">
        <ele>99.793844</ele>
        <time>2026-08-15T08:14:14.921Z</time>
      </trkpt>
      <trkpt lat="49.53203" lon="3.5503">
        <ele>100.257153</ele>
        <time>2026-08-15T08:14:18.921Z</time>
      </trkpt>
      <trkpt lat="49.53211" lon="3.55039">
        <ele>100.734076</ele>
        <time>2026-08-15T08:14:22.921Z</time>
      </trkpt>
      <trkpt lat="49.53219" lon="3.55046">
        <ele>101.185917</ele>
        <time>2026-08-15T08:14:26.921Z</time>
      </trkpt>
      <trkpt lat="49.53229" lon="3.55052">
        <ele>101.734007</ele>
        <time>2026-08-15T08:14:31.919Z</time>
      </trkpt>
      <trkpt lat="49.53239" lon="3.55051">
        <ele>102.235792</ele>
        <time>2026-08-15T08:14:36.919Z</time>
      </trkpt>
      <trkpt lat="49.53249" lon="3.55046">
        <ele>102.75499</ele>
        <time>2026-08-15T08:14:45.905Z</time>
      </trkpt>
      <trkpt lat="49.53258" lon="3.55038">
        <ele>103.233425</ele>
        <time>2026-08-15T08:14:55.908Z</time>
      </trkpt>
      <trkpt lat="49.53266" lon="3.55032">
        <ele>103.687121</ele>
        <time>2026-08-15T08:15:02.913Z</time>
      </trkpt>
      <trkpt lat="49.53276" lon="3.55027">
        <ele>104.178444</ele>
        <time>2026-08-15T08:15:10.912Z</time>
      </trkpt>
      <trkpt lat="49.53285" lon="3.55031">
        <ele>104.669074</ele>
        <time>2026-08-15T08:15:17.911Z</time>
      </trkpt>
      <trkpt lat="49.53291" lon="3.55042">
        <ele>105.128649</ele>
        <time>2026-08-15T08:15:23.911Z</time>
      </trkpt>
      <trkpt lat="49.53296" lon="3.55055">
        <ele>105.62237</ele>
        <time>2026-08-15T08:15:30.899Z</time>
      </trkpt>
      <trkpt lat="49.53301" lon="3.5507">
        <ele>106.12673</ele>
        <time>2026-08-15T08:15:37.906Z</time>
      </trkpt>
      <trkpt lat="49.53305" lon="3.55083">
        <ele>106.604397</ele>
        <time>2026-08-15T08:15:44.907Z</time>
      </trkpt>
      <trkpt lat="49.53311" lon="3.55096">
        <ele>107.103078</ele>
        <time>2026-08-15T08:15:52.912Z</time>
      </trkpt>
      <trkpt lat="49.53316" lon="3.55108">
        <ele>107.558891</ele>
        <time>2026-08-15T08:15:59.921Z</time>
      </trkpt>
      <trkpt lat="49.53322" lon="3.55119">
        <ele>108.031325</ele>
        <time>2026-08-15T08:16:06.915Z</time>
      </trkpt>
      <trkpt lat="49.5332" lon="3.55133">
        <ele>108.31376</ele>
        <time>2026-08-15T08:16:14.907Z</time>
      </trkpt>
      <trkpt lat="49.53312" lon="3.5514">
        <ele>108.249407</ele>
        <time>2026-08-15T08:16:21.906Z</time>
      </trkpt>
      <trkpt lat="49.53304" lon="3.55148">
        <ele>108.182947</ele>
        <time>2026-08-15T08:16:29.911Z</time>
      </trkpt>
      <trkpt lat="49.53295" lon="3.55155">
        <ele>108.112769</ele>
        <time>2026-08-15T08:16:36.910Z</time>
      </trkpt>
      <trkpt lat="49.53286" lon="3.55162">
        <ele>108.046952</ele>
        <time>2026-08-15T08:16:43.910Z</time>
      </trkpt>
      <trkpt lat="49.53278" lon="3.55169">
        <ele>107.980728</ele>
        <time>2026-08-15T08:16:50.914Z</time>
      </trkpt>
      <trkpt lat="49.5327" lon="3.55178">
        <ele>107.912971</ele>
        <time>2026-08-15T08:16:57.916Z</time>
      </trkpt>
      <trkpt lat="49.53263" lon="3.55189">
        <ele>107.845406</ele>
        <time>2026-08-15T08:17:05.893Z</time>
      </trkpt>
      <trkpt lat="49.53257" lon="3.55199">
        <ele>107.782281</ele>
        <time>2026-08-15T08:17:13.924Z</time>
      </trkpt>
      <trkpt lat="49.53251" lon="3.55212">
        <ele>107.713297</ele>
        <time>2026-08-15T08:17:20.916Z</time>
      </trkpt>
      <trkpt lat="49.53244" lon="3.55221">
        <ele>107.650814</ele>
        <time>2026-08-15T08:17:26.921Z</time>
      </trkpt>
      <trkpt lat="49.53236" lon="3.55228">
        <ele>107.588187</ele>
        <time>2026-08-15T08:17:31.923Z</time>
      </trkpt>
      <trkpt lat="49.53227" lon="3.55234">
        <ele>107.51981</ele>
        <time>2026-08-15T08:17:35.920Z</time>
      </trkpt>
      <trkpt lat="49.53218" lon="3.55244">
        <ele>107.443702</ele>
        <time>2026-08-15T08:17:40.918Z</time>
      </trkpt>
      <trkpt lat="49.53212" lon="3.55258">
        <ele>107.369613</ele>
        <time>2026-08-15T08:17:45.921Z</time>
      </trkpt>
      <trkpt lat="49.5321" lon="3.55273">
        <ele>107.301658</ele>
        <time>2026-08-15T08:17:49.925Z</time>
      </trkpt>
      <trkpt lat="49.53211" lon="3.55287">
        <ele>107.235864</ele>
        <time>2026-08-15T08:17:53.925Z</time>
      </trkpt>
      <trkpt lat="49.53215" lon="3.55302">
        <ele>107.162868</ele>
        <time>2026-08-15T08:18:01.917Z</time>
      </trkpt>
      <trkpt lat="49.53219" lon="3.55315">
        <ele>107.097481</ele>
        <time>2026-08-15T08:18:08.918Z</time>
      </trkpt>
      <trkpt lat="49.53221" lon="3.55329">
        <ele>107.097481</ele>
        <time>2026-08-15T08:18:15.911Z</time>
      </trkpt>
      <trkpt lat="49.53224" lon="3.55343">
        <ele>107.097481</ele>
        <time>2026-08-15T08:18:22.920Z</time>
      </trkpt>
      <trkpt lat="49.53225" lon="3.55357">
        <ele>107.097481</ele>
        <time>2026-08-15T08:18:28.904Z</time>
      </trkpt>
      <trkpt lat="49.53228" lon="3.55372">
        <ele>107.097481</ele>
        <time>2026-08-15T08:18:35.906Z</time>
      </trkpt>
      <trkpt lat="49.53227" lon="3.55386">
        <ele>107.097481</ele>
        <time>2026-08-15T08:18:41.901Z</time>
      </trkpt>
      <trkpt lat="49.53226" lon="3.554">
        <ele>107.097481</ele>
        <time>2026-08-15T08:18:46.908Z</time>
      </trkpt>
      <trkpt lat="49.53227" lon="3.55414">
        <ele>107.097481</ele>
        <time>2026-08-15T08:18:52.907Z</time>
      </trkpt>
      <trkpt lat="49.5323" lon="3.55428">
        <ele>107.097481</ele>
        <time>2026-08-15T08:18:58.909Z</time>
      </trkpt>
      <trkpt lat="49.53233" lon="3.55441">
        <ele>107.097481</ele>
        <time>2026-08-15T08:19:04.904Z</time>
      </trkpt>
      <trkpt lat="49.53234" lon="3.55456">
        <ele>107.097481</ele>
        <time>2026-08-15T08:19:10.902Z</time>
      </trkpt>
      <trkpt lat="49.53234" lon="3.5547">
        <ele>107.097481</ele>
        <time>2026-08-15T08:19:14.916Z</time>
      </trkpt>
      <trkpt lat="49.53233" lon="3.55485">
        <ele>107.097481</ele>
        <time>2026-08-15T08:19:18.919Z</time>
      </trkpt>
      <trkpt lat="49.5323" lon="3.55501">
        <ele>107.097481</ele>
        <time>2026-08-15T08:19:22.921Z</time>
      </trkpt>
      <trkpt lat="49.53227" lon="3.55514">
        <ele>107.097481</ele>
        <time>2026-08-15T08:19:26.924Z</time>
      </trkpt>
      <trkpt lat="49.53222" lon="3.55529">
        <ele>107.097481</ele>
        <time>2026-08-15T08:19:32.914Z</time>
      </trkpt>
      <trkpt lat="49.53217" lon="3.55542">
        <ele>107.097481</ele>
        <time>2026-08-15T08:19:39.923Z</time>
      </trkpt>
      <trkpt lat="49.53212" lon="3.55554">
        <ele>107.097481</ele>
        <time>2026-08-15T08:19:49.909Z</time>
      </trkpt>
      <trkpt lat="49.53208" lon="3.55568">
        <ele>107.097481</ele>
        <time>2026-08-15T08:19:58.928Z</time>
      </trkpt>
      <trkpt lat="49.53204" lon="3.55581">
        <ele>107.097481</ele>
        <time>2026-08-15T08:20:15.903Z</time>
      </trkpt>
      <trkpt lat="49.532" lon="3.55594">
        <ele>107.097481</ele>
        <time>2026-08-15T08:20:23.905Z</time>
      </trkpt>
      <trkpt lat="49.53196" lon="3.55607">
        <ele>107.097481</ele>
        <time>2026-08-15T08:20:32.905Z</time>
      </trkpt>
      <trkpt lat="49.53188" lon="3.55615">
        <ele>107.097481</ele>
        <time>2026-08-15T08:20:40.903Z</time>
      </trkpt>
      <trkpt lat="49.5318" lon="3.55622">
        <ele>107.097481</ele>
        <time>2026-08-15T08:20:48.909Z</time>
      </trkpt>
    </trkseg>
  </trk>
</gpx>